AAL596 UMMS-PAKT
Flight info
| Callsign | AAL596 |
|---|---|
| Flight time | N/A |
| Altitude | 30000 |
| Route | AGNEF2F AGNEF N743 MOGRA/K0906F320 N743 AGMUT/K0909F310 T693 DISUP T821 ARGIP M58 UNARI/K0922F330 M58 RIGNI L168 NRM M131 TUMOK G7 LIRFA/K0907F350 DCT ABDET G7 TOMRI DCT NALEK/K0867F250 G212 GIRLO/K0896F350 N222 VALDA/N0484F350 H222 MCG/N0495F370 J111 TED J804R MDO J605 BKA J195 UDENE V311 ERANE |
| Aircraft | B77W/H-SDE1E2E3FGHIJ2J3J4J5M1RWXY/LB1D1 |
Departure
| Time | N/A |
|---|---|
| Airport | Minsk National Airport (UMMS) |
Arrival
| Time | 2026-05-09 04:43 |
|---|---|
| Airport | Ketchikan International Airport (PAKT) |
| Time | Latitude | Longitude | Altitude | Speed | Heading |
|---|---|---|---|---|---|
| 2026-05-08 18:51 | 63.21102 | 36.66862 | 37141 ft | 527 kts | 41° |
| 2026-05-08 18:51 | 63.23581 | 36.72899 | 37135 ft | 531 kts | 46° |
| 2026-05-08 18:52 | 63.28255 | 36.85618 | 37131 ft | 532 kts | 47° |
| 2026-05-08 18:52 | 63.32907 | 36.98405 | 37203 ft | 529 kts | 46° |
| 2026-05-08 18:53 | 63.35241 | 37.04748 | 37318 ft | 527 kts | 46° |
| 2026-05-08 18:53 | 63.37572 | 37.11056 | 37373 ft | 527 kts | 46° |
| 2026-05-08 18:53 | 63.42218 | 37.23691 | 37428 ft | 527 kts | 47° |
| 2026-05-08 18:54 | 63.46861 | 37.36419 | 37432 ft | 528 kts | 47° |
| 2026-05-08 18:54 | 63.51470 | 37.49129 | 37429 ft | 529 kts | 47° |
| 2026-05-08 18:55 | 63.58421 | 37.68432 | 37426 ft | 531 kts | 47° |
| 2026-05-08 18:56 | 63.63048 | 37.81371 | 37422 ft | 531 kts | 47° |
| 2026-05-08 18:56 | 63.67667 | 37.94365 | 37419 ft | 532 kts | 47° |
| 2026-05-08 18:57 | 63.72281 | 38.07419 | 37417 ft | 533 kts | 48° |
| 2026-05-08 18:57 | 63.76894 | 38.20547 | 37376 ft | 534 kts | 48° |
| 2026-05-08 18:58 | 63.81515 | 38.33776 | 37312 ft | 536 kts | 48° |
| 2026-05-08 18:58 | 63.86096 | 38.46968 | 37313 ft | 536 kts | 48° |
| 2026-05-08 18:59 | 63.90699 | 38.60304 | 37306 ft | 536 kts | 49° |
| 2026-05-08 18:59 | 63.95290 | 38.73681 | 37305 ft | 536 kts | 49° |
| 2026-05-08 19:00 | 63.99864 | 38.87093 | 37304 ft | 536 kts | 49° |
| 2026-05-08 19:00 | 64.04426 | 39.00541 | 37301 ft | 535 kts | 49° |
| 2026-05-08 19:01 | 64.08944 | 39.13941 | 37302 ft | 535 kts | 49° |
| 2026-05-08 19:01 | 64.13507 | 39.27554 | 37293 ft | 535 kts | 49° |
| 2026-05-08 19:02 | 64.17984 | 39.40992 | 37299 ft | 534 kts | 50° |
| 2026-05-08 19:02 | 64.22491 | 39.54602 | 37294 ft | 534 kts | 50° |
| 2026-05-08 19:03 | 64.26971 | 39.68212 | 37288 ft | 534 kts | 50° |
| 2026-05-08 19:03 | 64.31445 | 39.81881 | 37288 ft | 534 kts | 50° |
| 2026-05-08 19:04 | 64.35893 | 39.95574 | 37274 ft | 533 kts | 50° |
| 2026-05-08 19:04 | 64.40317 | 40.09338 | 37272 ft | 533 kts | 51° |
| 2026-05-08 19:05 | 64.44729 | 40.23153 | 37262 ft | 533 kts | 51° |
| 2026-05-08 19:05 | 64.49125 | 40.36992 | 37250 ft | 533 kts | 51° |
| 2026-05-08 19:06 | 64.53507 | 40.50873 | 37244 ft | 533 kts | 51° |
| 2026-05-08 19:06 | 64.57877 | 40.64789 | 37243 ft | 533 kts | 51° |
| 2026-05-08 19:07 | 64.62453 | 40.78181 | 37246 ft | 530 kts | 45° |
| 2026-05-08 19:07 | 64.67478 | 40.90812 | 37244 ft | 530 kts | 44° |
| 2026-05-08 19:08 | 64.72514 | 41.03431 | 37250 ft | 530 kts | 45° |
| 2026-05-08 19:08 | 64.77461 | 41.16093 | 37266 ft | 530 kts | 45° |
| 2026-05-08 19:09 | 64.82424 | 41.28940 | 37268 ft | 530 kts | 45° |
| 2026-05-08 19:09 | 64.87376 | 41.41820 | 37275 ft | 530 kts | 45° |
| 2026-05-08 19:10 | 64.92304 | 41.54731 | 37283 ft | 531 kts | 46° |
| 2026-05-08 19:10 | 64.97209 | 41.67810 | 37278 ft | 531 kts | 46° |
| 2026-05-08 19:11 | 65.02097 | 41.80879 | 37283 ft | 531 kts | 46° |
| 2026-05-08 19:11 | 65.06985 | 41.94004 | 37274 ft | 531 kts | 46° |
| 2026-05-08 19:12 | 65.11864 | 42.07193 | 37279 ft | 531 kts | 46° |
| 2026-05-08 19:12 | 65.16720 | 42.20400 | 37282 ft | 531 kts | 46° |
| 2026-05-08 19:13 | 65.21585 | 42.33642 | 37287 ft | 530 kts | 46° |
| 2026-05-08 19:13 | 65.26539 | 42.46684 | 37274 ft | 530 kts | 45° |
| 2026-05-08 19:14 | 65.31462 | 42.59664 | 37276 ft | 530 kts | 46° |
| 2026-05-08 19:14 | 65.36268 | 42.72721 | 37276 ft | 531 kts | 49° |
| 2026-05-08 19:15 | 65.40782 | 42.86746 | 37283 ft | 531 kts | 51° |
| 2026-05-08 19:15 | 65.45224 | 43.00953 | 37278 ft | 531 kts | 51° |
| 2026-05-08 19:16 | 65.49692 | 43.15114 | 37279 ft | 531 kts | 51° |
| 2026-05-08 19:16 | 65.54153 | 43.29299 | 37275 ft | 531 kts | 51° |
| 2026-05-08 19:17 | 65.58594 | 43.43571 | 37274 ft | 531 kts | 51° |
| 2026-05-08 19:17 | 65.63046 | 43.57981 | 37274 ft | 531 kts | 51° |
| 2026-05-08 19:18 | 65.67451 | 43.72322 | 37273 ft | 531 kts | 51° |
| 2026-05-08 19:18 | 65.71824 | 43.86646 | 37273 ft | 531 kts | 52° |
| 2026-05-08 19:19 | 65.76219 | 44.01138 | 37268 ft | 531 kts | 52° |
| 2026-05-08 19:19 | 65.80593 | 44.15655 | 37271 ft | 531 kts | 52° |
| 2026-05-08 19:20 | 65.84942 | 44.30219 | 37266 ft | 531 kts | 53° |
| 2026-05-08 19:20 | 65.89143 | 44.45110 | 37268 ft | 532 kts | 54° |
| 2026-05-08 19:21 | 65.93275 | 44.60122 | 37263 ft | 532 kts | 54° |
| 2026-05-08 19:21 | 65.97416 | 44.75149 | 37267 ft | 532 kts | 54° |
| 2026-05-08 19:22 | 66.00861 | 44.87663 | 37259 ft | 531 kts | 54° |
| 2026-05-08 19:22 | 66.04991 | 45.02748 | 37267 ft | 531 kts | 54° |
| 2026-05-08 19:23 | 66.09099 | 45.17872 | 37261 ft | 531 kts | 54° |
| 2026-05-08 19:23 | 66.13207 | 45.33091 | 37260 ft | 531 kts | 55° |
| 2026-05-08 19:24 | 66.17284 | 45.48319 | 37257 ft | 531 kts | 55° |
| 2026-05-08 19:24 | 66.21349 | 45.63637 | 37258 ft | 531 kts | 55° |
| 2026-05-08 19:25 | 66.24332 | 45.74949 | 37257 ft | 531 kts | 55° |
| 2026-05-08 19:25 | 66.28365 | 45.90327 | 37252 ft | 531 kts | 56° |
| 2026-05-08 19:26 | 66.32361 | 46.05668 | 37249 ft | 531 kts | 56° |
| 2026-05-08 19:26 | 66.36359 | 46.21122 | 37253 ft | 531 kts | 56° |
| 2026-05-08 19:27 | 66.40348 | 46.36651 | 37248 ft | 531 kts | 56° |
| 2026-05-08 19:27 | 66.44321 | 46.52228 | 37247 ft | 531 kts | 56° |
| 2026-05-08 19:28 | 66.48279 | 46.67856 | 37246 ft | 532 kts | 56° |
| 2026-05-08 19:28 | 66.52223 | 46.83541 | 37241 ft | 532 kts | 56° |
| 2026-05-08 19:29 | 66.56147 | 46.99260 | 37239 ft | 532 kts | 57° |
| 2026-05-08 19:29 | 66.60057 | 47.15036 | 37238 ft | 532 kts | 57° |
| 2026-05-08 19:30 | 66.63959 | 47.30892 | 37237 ft | 532 kts | 57° |
| 2026-05-08 19:30 | 66.67839 | 47.46776 | 37236 ft | 532 kts | 57° |
| 2026-05-08 19:31 | 66.71704 | 47.62706 | 37234 ft | 532 kts | 57° |
| 2026-05-08 19:31 | 66.75494 | 47.78754 | 37229 ft | 532 kts | 62° |
| 2026-05-08 19:32 | 66.78685 | 47.95561 | 37234 ft | 532 kts | 64° |
| 2026-05-08 19:32 | 66.81807 | 48.12739 | 37230 ft | 533 kts | 64° |
| 2026-05-08 19:33 | 66.84928 | 48.29664 | 37227 ft | 533 kts | 64° |
| 2026-05-08 19:33 | 66.88062 | 48.46729 | 37232 ft | 533 kts | 64° |
| 2026-05-08 19:34 | 66.91164 | 48.63888 | 37224 ft | 533 kts | 64° |
| 2026-05-08 19:34 | 66.94240 | 48.81066 | 37223 ft | 533 kts | 64° |
| 2026-05-08 19:35 | 66.97300 | 48.98286 | 37221 ft | 533 kts | 65° |
| 2026-05-08 19:35 | 67.00350 | 49.15581 | 37226 ft | 533 kts | 65° |
| 2026-05-08 19:36 | 67.03376 | 49.32893 | 37219 ft | 533 kts | 65° |
| 2026-05-08 19:36 | 67.06363 | 49.50133 | 37220 ft | 533 kts | 65° |
| 2026-05-08 19:37 | 67.09352 | 49.67534 | 37216 ft | 533 kts | 65° |
| 2026-05-08 19:37 | 67.12320 | 49.84971 | 37215 ft | 532 kts | 65° |
| 2026-05-08 19:38 | 67.15268 | 50.02442 | 37215 ft | 532 kts | 66° |
| 2026-05-08 19:38 | 67.18202 | 50.19986 | 37211 ft | 532 kts | 66° |
| 2026-05-08 19:39 | 67.21112 | 50.37541 | 37208 ft | 533 kts | 66° |
| 2026-05-08 19:39 | 67.24005 | 50.55156 | 37208 ft | 533 kts | 66° |
| 2026-05-08 19:40 | 67.26876 | 50.72799 | 37206 ft | 533 kts | 66° |
| 2026-05-08 19:40 | 67.29715 | 50.90384 | 37206 ft | 533 kts | 66° |
| 2026-05-08 19:41 | 67.32606 | 51.08201 | 37205 ft | 533 kts | 66° |
| 2026-05-08 19:41 | 67.35507 | 51.25749 | 37206 ft | 533 kts | 66° |
| 2026-05-08 19:42 | 67.38405 | 51.43434 | 37202 ft | 533 kts | 66° |
| 2026-05-08 19:42 | 67.41276 | 51.61211 | 37198 ft | 533 kts | 66° |
| 2026-05-08 19:43 | 67.44123 | 51.79022 | 37196 ft | 533 kts | 66° |
| 2026-05-08 19:43 | 67.46950 | 51.96848 | 37198 ft | 533 kts | 67° |
| 2026-05-08 19:44 | 67.49728 | 52.14779 | 37196 ft | 533 kts | 68° |
| 2026-05-08 19:44 | 67.52407 | 52.32820 | 37197 ft | 533 kts | 68° |
| 2026-05-08 19:45 | 67.55075 | 52.50943 | 37192 ft | 533 kts | 68° |
| 2026-05-08 19:45 | 67.57715 | 52.68946 | 37195 ft | 533 kts | 68° |
| 2026-05-08 19:46 | 67.60356 | 52.87100 | 37191 ft | 533 kts | 68° |
| 2026-05-08 19:46 | 67.64888 | 53.13638 | 37191 ft | 531 kts | 58° |
| 2026-05-08 19:47 | 67.69126 | 53.29465 | 37191 ft | 529 kts | 50° |
| 2026-05-08 19:47 | 67.73750 | 53.44583 | 37188 ft | 529 kts | 50° |
| 2026-05-08 19:48 | 67.78345 | 53.59792 | 37185 ft | 530 kts | 50° |
| 2026-05-08 19:48 | 67.82889 | 53.75183 | 37176 ft | 530 kts | 51° |
| 2026-05-08 19:49 | 67.87371 | 53.90515 | 37193 ft | 530 kts | 51° |
| 2026-05-08 19:49 | 67.91880 | 54.06005 | 37192 ft | 530 kts | 51° |
| 2026-05-08 19:50 | 67.96362 | 54.21643 | 37181 ft | 530 kts | 51° |
| 2026-05-08 19:50 | 68.00778 | 54.37239 | 37182 ft | 530 kts | 51° |
| 2026-05-08 19:51 | 68.05213 | 54.52993 | 37182 ft | 530 kts | 51° |
| 2026-05-08 19:51 | 68.09630 | 54.68781 | 37178 ft | 530 kts | 52° |
| 2026-05-08 19:52 | 68.14051 | 54.84696 | 37177 ft | 529 kts | 52° |
| 2026-05-08 19:52 | 68.18417 | 55.00517 | 37182 ft | 529 kts | 52° |
| 2026-05-08 19:53 | 68.22785 | 55.16453 | 37177 ft | 529 kts | 52° |
| 2026-05-08 19:53 | 68.27143 | 55.32453 | 37175 ft | 529 kts | 52° |
| 2026-05-08 19:54 | 68.31477 | 55.48483 | 37171 ft | 528 kts | 52° |
| 2026-05-08 19:54 | 68.35799 | 55.64588 | 37174 ft | 528 kts | 52° |
| 2026-05-08 19:55 | 68.40099 | 55.80730 | 37164 ft | 528 kts | 52° |
| 2026-05-08 19:55 | 68.44389 | 55.96955 | 37171 ft | 528 kts | 53° |
| 2026-05-08 19:56 | 68.48658 | 56.13222 | 37167 ft | 527 kts | 53° |
| 2026-05-08 19:56 | 68.52904 | 56.29524 | 37165 ft | 527 kts | 53° |
| 2026-05-08 19:57 | 68.57138 | 56.45904 | 37156 ft | 527 kts | 53° |
| 2026-05-08 19:57 | 68.61320 | 56.62202 | 37158 ft | 527 kts | 53° |
| 2026-05-08 19:58 | 68.65511 | 56.78660 | 37156 ft | 526 kts | 53° |
| 2026-05-08 19:58 | 68.69691 | 56.95188 | 37154 ft | 526 kts | 53° |
| 2026-05-08 19:59 | 68.73857 | 57.11745 | 37151 ft | 526 kts | 53° |
| 2026-05-08 19:59 | 68.78029 | 57.28319 | 37149 ft | 526 kts | 53° |
| 2026-05-08 20:00 | 68.82184 | 57.44943 | 37144 ft | 525 kts | 54° |
| 2026-05-08 20:00 | 68.86317 | 57.61630 | 37139 ft | 525 kts | 54° |
| 2026-05-08 20:01 | 68.90437 | 57.78384 | 37145 ft | 525 kts | 54° |
| 2026-05-08 20:01 | 68.94594 | 57.95065 | 37138 ft | 524 kts | 53° |
| 2026-05-08 20:02 | 68.98799 | 58.11634 | 37147 ft | 524 kts | 53° |
| 2026-05-08 20:02 | 69.02964 | 58.28200 | 37137 ft | 524 kts | 53° |
| 2026-05-08 20:03 | 69.07122 | 58.44951 | 37136 ft | 524 kts | 53° |
| 2026-05-08 20:03 | 69.11261 | 58.61775 | 37137 ft | 524 kts | 54° |
| 2026-05-08 20:04 | 69.15359 | 58.78556 | 37139 ft | 524 kts | 54° |
| 2026-05-08 20:04 | 69.19467 | 58.95489 | 37129 ft | 523 kts | 54° |
| 2026-05-08 20:05 | 69.22835 | 59.09783 | 37138 ft | 523 kts | 55° |
| 2026-05-08 20:05 | 69.27390 | 59.29888 | 37152 ft | 523 kts | 56° |
| 2026-05-08 20:06 | 69.30663 | 59.44439 | 37134 ft | 523 kts | 56° |
| 2026-05-08 20:06 | 69.34544 | 59.61724 | 37139 ft | 523 kts | 56° |
| 2026-05-08 20:07 | 69.38444 | 59.79197 | 37138 ft | 523 kts | 56° |
| 2026-05-08 20:07 | 69.42316 | 59.96691 | 37138 ft | 523 kts | 56° |
| 2026-05-08 20:08 | 69.46169 | 60.14247 | 37134 ft | 523 kts | 56° |
| 2026-05-08 20:08 | 69.50010 | 60.31888 | 37133 ft | 523 kts | 56° |
| 2026-05-08 20:09 | 69.53835 | 60.49588 | 37131 ft | 523 kts | 57° |
| 2026-05-08 20:09 | 69.57657 | 60.67287 | 37131 ft | 523 kts | 57° |
| 2026-05-08 20:10 | 69.61453 | 60.84955 | 37133 ft | 523 kts | 57° |
| 2026-05-08 20:10 | 69.65248 | 61.02783 | 37131 ft | 523 kts | 57° |
| 2026-05-08 20:11 | 69.69024 | 61.20689 | 37127 ft | 523 kts | 57° |
| 2026-05-08 20:11 | 69.72782 | 61.38645 | 37123 ft | 523 kts | 57° |
| 2026-05-08 20:12 | 69.76614 | 61.56433 | 37122 ft | 521 kts | 53° |
| 2026-05-08 20:12 | 69.81220 | 61.72543 | 37120 ft | 518 kts | 46° |
| 2026-05-08 20:13 | 69.86003 | 61.88027 | 37112 ft | 519 kts | 46° |
| 2026-05-08 20:13 | 69.90751 | 62.03826 | 37113 ft | 519 kts | 47° |
| 2026-05-08 20:14 | 69.95470 | 62.19759 | 37112 ft | 519 kts | 47° |
| 2026-05-08 20:14 | 70.00205 | 62.35669 | 37109 ft | 519 kts | 47° |
| 2026-05-08 20:15 | 70.04938 | 62.51636 | 37104 ft | 519 kts | 47° |
| 2026-05-08 20:15 | 70.09650 | 62.67679 | 37104 ft | 519 kts | 47° |
| 2026-05-08 20:16 | 70.14355 | 62.83841 | 37100 ft | 519 kts | 47° |
| 2026-05-08 20:16 | 70.19030 | 63.00029 | 37099 ft | 519 kts | 47° |
| 2026-05-08 20:17 | 70.23673 | 63.16227 | 37093 ft | 519 kts | 48° |
| 2026-05-08 20:17 | 70.28327 | 63.32586 | 37092 ft | 519 kts | 48° |
| 2026-05-08 20:18 | 70.32963 | 63.49010 | 37089 ft | 519 kts | 48° |
| 2026-05-08 20:18 | 70.37583 | 63.65505 | 37085 ft | 519 kts | 48° |
| 2026-05-08 20:19 | 70.42186 | 63.82065 | 37091 ft | 519 kts | 48° |
| 2026-05-08 20:19 | 70.46780 | 63.98725 | 37078 ft | 519 kts | 49° |
| 2026-05-08 20:20 | 70.51357 | 64.15452 | 37080 ft | 519 kts | 49° |
| 2026-05-08 20:20 | 70.55913 | 64.32235 | 37074 ft | 519 kts | 49° |
| 2026-05-08 20:21 | 70.60452 | 64.49091 | 37068 ft | 519 kts | 49° |
| 2026-05-08 20:21 | 70.64978 | 64.66027 | 37067 ft | 519 kts | 49° |
| 2026-05-08 20:22 | 70.69487 | 64.83041 | 37062 ft | 519 kts | 49° |
| 2026-05-08 20:22 | 70.73980 | 65.00127 | 37061 ft | 519 kts | 50° |
| 2026-05-08 20:23 | 70.78431 | 65.17190 | 37058 ft | 519 kts | 50° |
| 2026-05-08 20:23 | 70.82893 | 65.34432 | 37054 ft | 519 kts | 50° |
| 2026-05-08 20:24 | 70.87335 | 65.51737 | 37051 ft | 519 kts | 50° |
| 2026-05-08 20:24 | 70.91766 | 65.69131 | 37049 ft | 519 kts | 50° |
| 2026-05-08 20:25 | 70.96180 | 65.86609 | 37042 ft | 519 kts | 50° |
| 2026-05-08 20:25 | 71.00547 | 66.04056 | 37041 ft | 519 kts | 50° |
| 2026-05-08 20:26 | 71.04924 | 66.21680 | 37023 ft | 519 kts | 51° |
| 2026-05-08 20:26 | 71.09285 | 66.39382 | 37030 ft | 518 kts | 51° |
| 2026-05-08 20:27 | 71.13629 | 66.57161 | 37028 ft | 518 kts | 51° |
| 2026-05-08 20:27 | 71.17957 | 66.75016 | 37026 ft | 518 kts | 51° |
| 2026-05-08 20:28 | 71.22219 | 66.93061 | 37019 ft | 519 kts | 55° |
| 2026-05-08 20:28 | 71.25963 | 67.12246 | 37017 ft | 520 kts | 58° |
| 2026-05-08 20:29 | 71.29576 | 67.31748 | 37012 ft | 520 kts | 58° |
| 2026-05-08 20:29 | 71.33191 | 67.51308 | 37005 ft | 520 kts | 58° |
| 2026-05-08 20:30 | 71.36819 | 67.70895 | 37004 ft | 520 kts | 58° |
| 2026-05-08 20:30 | 71.40432 | 67.90504 | 37001 ft | 520 kts | 58° |
| 2026-05-08 20:31 | 71.44021 | 68.10172 | 36990 ft | 520 kts | 58° |
| 2026-05-08 20:31 | 71.47597 | 68.29963 | 36995 ft | 520 kts | 59° |
| 2026-05-08 20:32 | 71.51146 | 68.49804 | 36986 ft | 520 kts | 59° |
| 2026-05-08 20:32 | 71.54667 | 68.69680 | 36984 ft | 520 kts | 59° |
| 2026-05-08 20:33 | 71.58171 | 68.89649 | 36977 ft | 519 kts | 59° |
| 2026-05-08 20:33 | 71.61633 | 69.09568 | 36974 ft | 519 kts | 59° |
| 2026-05-08 20:34 | 71.65091 | 69.29657 | 36970 ft | 519 kts | 60° |
| 2026-05-08 20:35 | 71.70239 | 69.59932 | 36961 ft | 519 kts | 60° |
| 2026-05-08 20:35 | 71.73650 | 69.80238 | 36956 ft | 519 kts | 60° |
| 2026-05-08 20:36 | 71.77033 | 70.00579 | 36951 ft | 519 kts | 60° |
| 2026-05-08 20:36 | 71.80399 | 70.21023 | 36946 ft | 519 kts | 60° |
| 2026-05-08 20:37 | 71.83743 | 70.41533 | 36945 ft | 519 kts | 61° |
| 2026-05-08 20:37 | 71.87058 | 70.62077 | 36939 ft | 519 kts | 61° |
| 2026-05-08 20:38 | 71.90333 | 70.82579 | 36933 ft | 519 kts | 61° |
| 2026-05-08 20:38 | 71.93606 | 71.03276 | 36935 ft | 519 kts | 62° |
| 2026-05-08 20:39 | 71.96858 | 71.24049 | 36920 ft | 519 kts | 62° |
| 2026-05-08 20:39 | 72.00089 | 71.44906 | 36916 ft | 519 kts | 62° |
| 2026-05-08 20:40 | 72.03294 | 71.65813 | 36914 ft | 519 kts | 62° |
| 2026-05-08 20:40 | 72.06478 | 71.86799 | 36919 ft | 518 kts | 62° |
| 2026-05-08 20:41 | 72.09639 | 72.07856 | 36916 ft | 518 kts | 63° |
| 2026-05-08 20:41 | 72.12773 | 72.28952 | 36917 ft | 518 kts | 63° |
| 2026-05-08 20:42 | 72.15891 | 72.50172 | 36922 ft | 518 kts | 63° |
| 2026-05-08 20:42 | 72.18983 | 72.71442 | 36919 ft | 518 kts | 63° |
| 2026-05-08 20:43 | 72.22051 | 72.92772 | 36919 ft | 518 kts | 63° |
| 2026-05-08 20:43 | 72.25098 | 73.14194 | 36917 ft | 518 kts | 64° |
| 2026-05-08 20:44 | 72.28103 | 73.35546 | 36917 ft | 518 kts | 64° |
| 2026-05-08 20:44 | 72.31097 | 73.57062 | 36916 ft | 518 kts | 64° |
| 2026-05-08 20:45 | 72.34076 | 73.78704 | 36909 ft | 518 kts | 64° |
| 2026-05-08 20:45 | 72.37025 | 74.00379 | 36905 ft | 518 kts | 64° |
| 2026-05-08 20:46 | 72.39956 | 74.22157 | 36900 ft | 519 kts | 65° |
| 2026-05-08 20:46 | 72.42862 | 74.44011 | 36895 ft | 519 kts | 65° |
| 2026-05-08 20:47 | 72.45741 | 74.65896 | 36892 ft | 519 kts | 65° |
| 2026-05-08 20:47 | 72.48598 | 74.87878 | 36890 ft | 519 kts | 65° |
| 2026-05-08 20:48 | 72.50957 | 75.06186 | 36882 ft | 519 kts | 65° |
| 2026-05-08 20:48 | 72.53770 | 75.28298 | 36879 ft | 519 kts | 66° |
| 2026-05-08 20:49 | 72.56556 | 75.50472 | 36878 ft | 518 kts | 66° |
| 2026-05-08 20:49 | 72.59317 | 75.72695 | 36875 ft | 518 kts | 66° |
| 2026-05-08 20:50 | 72.62052 | 75.94978 | 36873 ft | 518 kts | 66° |
| 2026-05-08 20:50 | 72.64762 | 76.17311 | 36869 ft | 517 kts | 67° |
| 2026-05-08 20:51 | 72.67447 | 76.39722 | 36866 ft | 517 kts | 67° |
| 2026-05-08 20:51 | 72.70099 | 76.62120 | 36866 ft | 517 kts | 68° |
| 2026-05-08 20:52 | 72.72732 | 76.84648 | 36865 ft | 517 kts | 68° |
| 2026-05-08 20:52 | 72.75334 | 77.07180 | 36858 ft | 516 kts | 68° |
| 2026-05-08 20:53 | 72.77895 | 77.29646 | 36853 ft | 516 kts | 68° |
| 2026-05-08 20:53 | 72.80449 | 77.52339 | 36852 ft | 516 kts | 68° |
| 2026-05-08 20:54 | 72.82978 | 77.75097 | 36848 ft | 516 kts | 69° |
| 2026-05-08 20:54 | 72.85480 | 77.97908 | 36847 ft | 516 kts | 69° |
| 2026-05-08 20:55 | 72.87954 | 78.20765 | 36844 ft | 517 kts | 69° |
| 2026-05-08 20:55 | 72.90408 | 78.43730 | 36837 ft | 517 kts | 69° |
| 2026-05-08 20:56 | 72.92819 | 78.66600 | 36837 ft | 517 kts | 69° |
| 2026-05-08 20:56 | 72.95227 | 78.89751 | 36832 ft | 518 kts | 69° |
| 2026-05-08 20:57 | 72.97609 | 79.12975 | 36824 ft | 518 kts | 70° |
| 2026-05-08 20:57 | 72.99950 | 79.36110 | 36824 ft | 518 kts | 70° |
| 2026-05-08 20:58 | 73.02275 | 79.59415 | 36820 ft | 518 kts | 70° |
| 2026-05-08 20:58 | 73.04579 | 79.82833 | 36818 ft | 518 kts | 71° |
| 2026-05-08 20:59 | 73.06849 | 80.06247 | 36814 ft | 517 kts | 71° |
| 2026-05-08 20:59 | 73.09090 | 80.29690 | 36812 ft | 517 kts | 71° |
| 2026-05-08 21:00 | 73.11304 | 80.53186 | 36809 ft | 516 kts | 71° |
| 2026-05-08 21:00 | 73.13487 | 80.76703 | 36810 ft | 515 kts | 72° |
| 2026-05-08 21:01 | 73.15636 | 81.00197 | 36810 ft | 514 kts | 72° |
| 2026-05-08 21:01 | 73.17763 | 81.23807 | 36802 ft | 514 kts | 72° |
| 2026-05-08 21:02 | 73.19845 | 81.47261 | 36803 ft | 514 kts | 72° |
| 2026-05-08 21:02 | 73.21910 | 81.70900 | 36807 ft | 513 kts | 73° |
| 2026-05-08 21:03 | 73.23949 | 81.94584 | 36796 ft | 513 kts | 73° |
| 2026-05-08 21:03 | 73.25962 | 82.18349 | 36796 ft | 513 kts | 73° |
| 2026-05-08 21:04 | 73.27947 | 82.42159 | 36792 ft | 513 kts | 73° |
| 2026-05-08 21:04 | 73.29902 | 82.65996 | 36789 ft | 513 kts | 73° |
| 2026-05-08 21:05 | 73.31828 | 82.89863 | 36780 ft | 512 kts | 74° |
| 2026-05-08 21:05 | 73.33717 | 83.13662 | 36783 ft | 512 kts | 74° |
| 2026-05-08 21:06 | 73.35591 | 83.37656 | 36777 ft | 512 kts | 75° |
| 2026-05-08 21:06 | 73.37433 | 83.61663 | 36774 ft | 512 kts | 75° |
| 2026-05-08 21:07 | 73.39250 | 83.85749 | 36772 ft | 512 kts | 75° |
| 2026-05-08 21:07 | 73.41040 | 84.09886 | 36771 ft | 513 kts | 75° |
| 2026-05-08 21:08 | 73.42808 | 84.34105 | 36770 ft | 513 kts | 75° |
| 2026-05-08 21:08 | 73.44531 | 84.58223 | 36761 ft | 513 kts | 76° |
| 2026-05-08 21:09 | 73.46233 | 84.82519 | 36758 ft | 513 kts | 76° |
| 2026-05-08 21:09 | 73.47908 | 85.06858 | 36752 ft | 513 kts | 76° |
| 2026-05-08 21:10 | 73.49560 | 85.31291 | 36754 ft | 513 kts | 77° |
| 2026-05-08 21:10 | 73.51181 | 85.55731 | 36747 ft | 513 kts | 77° |
| 2026-05-08 21:11 | 73.52771 | 85.80184 | 36747 ft | 513 kts | 77° |
| 2026-05-08 21:11 | 73.54338 | 86.04766 | 36746 ft | 512 kts | 77° |
| 2026-05-08 21:12 | 73.55868 | 86.29262 | 36744 ft | 512 kts | 78° |
| 2026-05-08 21:12 | 73.57374 | 86.53881 | 36739 ft | 511 kts | 78° |
| 2026-05-08 21:13 | 73.58849 | 86.78495 | 36734 ft | 511 kts | 78° |
| 2026-05-08 21:13 | 73.60291 | 87.03072 | 36733 ft | 510 kts | 78° |
| 2026-05-08 21:14 | 73.61694 | 87.27519 | 36731 ft | 509 kts | 79° |
| 2026-05-08 21:14 | 73.63075 | 87.52129 | 36728 ft | 509 kts | 79° |
| 2026-05-08 21:15 | 73.64427 | 87.76746 | 36722 ft | 508 kts | 79° |
| 2026-05-08 21:15 | 73.65750 | 88.01405 | 36721 ft | 507 kts | 80° |
| 2026-05-08 21:16 | 73.67041 | 88.26050 | 36717 ft | 507 kts | 80° |
| 2026-05-08 21:16 | 73.68296 | 88.50575 | 36708 ft | 507 kts | 80° |
| 2026-05-08 21:17 | 73.69528 | 88.75241 | 36709 ft | 506 kts | 81° |
| 2026-05-08 21:17 | 73.70732 | 88.99955 | 36702 ft | 506 kts | 81° |
| 2026-05-08 21:18 | 73.71572 | 89.17497 | 36700 ft | 506 kts | 81° |
| 2026-05-08 21:18 | 73.72740 | 89.42198 | 36695 ft | 505 kts | 81° |
| 2026-05-08 21:19 | 73.73936 | 89.66924 | 36689 ft | 505 kts | 81° |
| 2026-05-08 21:19 | 73.75106 | 89.91506 | 36679 ft | 505 kts | 81° |
| 2026-05-08 21:20 | 73.76247 | 90.16225 | 36677 ft | 505 kts | 81° |
| 2026-05-08 21:20 | 73.77355 | 90.40993 | 36677 ft | 504 kts | 82° |
| 2026-05-08 21:21 | 73.78434 | 90.65833 | 36664 ft | 504 kts | 82° |
| 2026-05-08 21:21 | 73.79474 | 90.90462 | 36661 ft | 503 kts | 82° |
| 2026-05-08 21:22 | 73.80493 | 91.15270 | 36649 ft | 503 kts | 82° |
| 2026-05-08 21:22 | 73.81482 | 91.40097 | 36643 ft | 503 kts | 83° |
| 2026-05-08 21:23 | 73.82442 | 91.64938 | 36638 ft | 502 kts | 83° |
| 2026-05-08 21:23 | 73.83372 | 91.89767 | 36627 ft | 502 kts | 83° |
| 2026-05-08 21:24 | 73.84271 | 92.14592 | 36623 ft | 502 kts | 83° |
| 2026-05-08 21:24 | 73.85143 | 92.39465 | 36616 ft | 502 kts | 83° |
| 2026-05-08 21:25 | 73.85986 | 92.64359 | 36612 ft | 501 kts | 84° |
| 2026-05-08 21:25 | 73.86533 | 92.81005 | 36608 ft | 501 kts | 84° |
| 2026-05-08 21:26 | 73.87329 | 93.06014 | 36600 ft | 501 kts | 84° |
| 2026-05-08 21:26 | 73.88094 | 93.30965 | 36590 ft | 501 kts | 84° |
| 2026-05-08 21:27 | 73.88828 | 93.55881 | 36581 ft | 500 kts | 84° |
| 2026-05-08 21:27 | 73.89534 | 93.80819 | 36571 ft | 500 kts | 85° |
| 2026-05-08 21:28 | 73.90206 | 94.05612 | 36564 ft | 500 kts | 85° |
| 2026-05-08 21:28 | 73.90854 | 94.30573 | 36554 ft | 500 kts | 85° |
| 2026-05-08 21:29 | 73.91473 | 94.55569 | 36545 ft | 500 kts | 85° |
| 2026-05-08 21:29 | 73.92062 | 94.80551 | 36530 ft | 500 kts | 86° |
| 2026-05-08 21:30 | 73.92623 | 95.05551 | 36527 ft | 500 kts | 86° |
| 2026-05-08 21:30 | 73.93159 | 95.30576 | 36511 ft | 500 kts | 86° |
| 2026-05-08 21:31 | 73.93613 | 95.55623 | 36502 ft | 499 kts | 88° |
| 2026-05-08 21:31 | 73.93942 | 95.80553 | 36494 ft | 499 kts | 88° |
| 2026-05-08 21:32 | 73.94239 | 96.05643 | 36473 ft | 499 kts | 88° |
| 2026-05-08 21:32 | 73.94521 | 96.30627 | 36465 ft | 498 kts | 88° |
| 2026-05-08 21:33 | 73.94781 | 96.55575 | 36452 ft | 497 kts | 89° |
| 2026-05-08 21:33 | 73.94978 | 96.76322 | 36443 ft | 496 kts | 89° |
| 2026-05-08 21:34 | 73.95218 | 97.05264 | 36430 ft | 495 kts | 89° |
| 2026-05-08 21:34 | 73.95366 | 97.26101 | 36423 ft | 494 kts | 89° |
| 2026-05-08 21:35 | 73.95515 | 97.50927 | 36414 ft | 494 kts | 89° |
| 2026-05-08 21:35 | 73.95635 | 97.75773 | 36411 ft | 493 kts | 90° |
| 2026-05-08 21:36 | 73.95728 | 98.00575 | 36406 ft | 493 kts | 90° |
| 2026-05-08 21:36 | 73.95792 | 98.25195 | 36396 ft | 492 kts | 90° |
| 2026-05-08 21:37 | 73.95804 | 98.31582 | 36399 ft | 492 kts | 90° |
| 2026-05-08 21:37 | 73.95820 | 98.43824 | 36403 ft | 492 kts | 90° |
| 2026-05-08 21:38 | 73.95835 | 98.68542 | 36383 ft | 492 kts | 90° |
| 2026-05-08 21:38 | 73.95821 | 98.93284 | 36378 ft | 492 kts | 91° |
| 2026-05-08 21:39 | 73.95779 | 99.18026 | 36363 ft | 492 kts | 91° |
| 2026-05-08 21:39 | 73.95708 | 99.42665 | 36362 ft | 491 kts | 91° |
| 2026-05-08 21:40 | 73.95609 | 99.67343 | 36355 ft | 491 kts | 91° |
| 2026-05-08 21:40 | 73.95481 | 99.92044 | 36336 ft | 491 kts | 91° |
| 2026-05-08 21:41 | 73.95238 | 100.29022 | 36328 ft | 490 kts | 92° |
| 2026-05-08 21:41 | 73.95040 | 100.53651 | 36320 ft | 490 kts | 92° |
| 2026-05-08 21:42 | 73.94815 | 100.78249 | 36313 ft | 489 kts | 92° |
| 2026-05-08 21:42 | 73.94564 | 101.02650 | 36301 ft | 489 kts | 92° |
| 2026-05-08 21:43 | 73.94283 | 101.27204 | 36294 ft | 489 kts | 92° |
| 2026-05-08 21:43 | 73.93974 | 101.51775 | 36285 ft | 489 kts | 93° |
| 2026-05-08 21:44 | 73.93636 | 101.76360 | 36275 ft | 490 kts | 93° |
| 2026-05-08 21:44 | 73.93271 | 102.00937 | 36270 ft | 489 kts | 93° |
| 2026-05-08 21:45 | 73.92878 | 102.25454 | 36257 ft | 489 kts | 94° |
| 2026-05-08 21:45 | 73.92460 | 102.49772 | 36249 ft | 489 kts | 94° |
| 2026-05-08 21:46 | 73.92013 | 102.74235 | 36242 ft | 488 kts | 94° |
| 2026-05-08 21:46 | 73.91539 | 102.98633 | 36235 ft | 487 kts | 94° |
| 2026-05-08 21:47 | 73.91038 | 103.22945 | 36223 ft | 486 kts | 95° |
| 2026-05-08 21:47 | 73.90512 | 103.47143 | 36203 ft | 478 kts | 95° |
| 2026-05-08 21:48 | 73.89965 | 103.71057 | 36220 ft | 482 kts | 95° |
| 2026-05-08 21:48 | 73.89386 | 103.95190 | 36203 ft | 483 kts | 95° |
| 2026-05-08 21:49 | 73.88788 | 104.18965 | 36190 ft | 479 kts | 95° |
| 2026-05-08 21:49 | 73.88158 | 104.42960 | 36194 ft | 482 kts | 95° |
| 2026-05-08 21:50 | 73.87502 | 104.66904 | 36167 ft | 478 kts | 96° |
| 2026-05-08 21:50 | 73.86822 | 104.90725 | 36180 ft | 481 kts | 96° |
| 2026-05-08 21:51 | 73.86110 | 105.14734 | 36168 ft | 482 kts | 96° |
| 2026-05-08 21:51 | 73.85377 | 105.38527 | 36160 ft | 479 kts | 96° |
| 2026-05-08 21:52 | 73.84616 | 105.62358 | 36166 ft | 484 kts | 96° |
| 2026-05-08 21:52 | 73.83816 | 105.86506 | 36149 ft | 482 kts | 97° |
| 2026-05-08 21:53 | 73.83008 | 106.10115 | 36151 ft | 481 kts | 97° |
| 2026-05-08 21:53 | 73.82162 | 106.34027 | 36151 ft | 484 kts | 97° |
| 2026-05-08 21:54 | 73.81291 | 106.57863 | 36130 ft | 480 kts | 97° |
| 2026-05-08 21:54 | 73.80392 | 106.81699 | 36144 ft | 485 kts | 98° |
| 2026-05-08 21:55 | 73.79463 | 107.05627 | 36121 ft | 484 kts | 98° |
| 2026-05-08 21:56 | 73.78023 | 107.41355 | 36116 ft | 485 kts | 98° |
| 2026-05-08 21:56 | 73.77033 | 107.65058 | 36105 ft | 485 kts | 99° |
| 2026-05-08 21:57 | 73.76011 | 107.88885 | 36102 ft | 485 kts | 99° |
| 2026-05-08 21:57 | 73.74961 | 108.12689 | 36095 ft | 484 kts | 99° |
| 2026-05-08 21:58 | 73.73888 | 108.36398 | 36095 ft | 483 kts | 99° |
| 2026-05-08 21:58 | 73.72793 | 108.59985 | 36091 ft | 483 kts | 100° |
| 2026-05-08 21:59 | 73.71669 | 108.83591 | 36078 ft | 481 kts | 100° |
| 2026-05-08 21:59 | 73.70524 | 109.07069 | 36083 ft | 481 kts | 101° |
| 2026-05-08 22:00 | 73.69355 | 109.30486 | 36082 ft | 480 kts | 101° |
| 2026-05-08 22:00 | 73.68158 | 109.53906 | 36076 ft | 481 kts | 101° |
| 2026-05-08 22:01 | 73.66946 | 109.77085 | 36081 ft | 480 kts | 101° |
| 2026-05-08 22:01 | 73.65698 | 110.00441 | 36069 ft | 480 kts | 102° |
| 2026-05-08 22:02 | 73.64429 | 110.23652 | 36087 ft | 480 kts | 102° |
| 2026-05-08 22:02 | 73.63128 | 110.46958 | 36073 ft | 482 kts | 102° |
| 2026-05-08 22:03 | 73.61808 | 110.70134 | 36062 ft | 477 kts | 102° |
| 2026-05-08 22:03 | 73.60460 | 110.93288 | 36059 ft | 483 kts | 102° |
| 2026-05-08 22:04 | 73.59085 | 111.16449 | 36058 ft | 482 kts | 103° |
| 2026-05-08 22:04 | 73.57687 | 111.39552 | 36048 ft | 476 kts | 103° |
| 2026-05-08 22:05 | 73.56265 | 111.62558 | 36064 ft | 483 kts | 103° |
| 2026-05-08 22:05 | 73.54823 | 111.85471 | 36039 ft | 477 kts | 104° |
| 2026-05-08 22:06 | 73.53350 | 112.08423 | 36056 ft | 482 kts | 104° |
| 2026-05-08 22:06 | 73.51834 | 112.31603 | 36048 ft | 486 kts | 104° |
| 2026-05-08 22:07 | 73.50284 | 112.54892 | 36052 ft | 491 kts | 104° |
| 2026-05-08 22:07 | 73.48695 | 112.78341 | 36047 ft | 495 kts | 104° |
| 2026-05-08 22:08 | 73.47063 | 113.01973 | 36049 ft | 498 kts | 104° |
| 2026-05-08 22:08 | 73.45414 | 113.25435 | 36037 ft | 500 kts | 105° |
| 2026-05-08 22:09 | 73.43720 | 113.49110 | 36036 ft | 499 kts | 105° |
| 2026-05-08 22:09 | 73.42007 | 113.72647 | 36030 ft | 497 kts | 105° |
| 2026-05-08 22:10 | 73.40279 | 113.96028 | 36026 ft | 494 kts | 105° |
| 2026-05-08 22:10 | 73.38577 | 114.19243 | 36023 ft | 492 kts | 105° |
| 2026-05-08 22:11 | 73.36940 | 114.42409 | 36028 ft | 490 kts | 105° |
| 2026-05-08 22:11 | 73.35290 | 114.65509 | 36031 ft | 490 kts | 105° |
| 2026-05-08 22:12 | 73.33606 | 114.88533 | 36036 ft | 490 kts | 105° |
| 2026-05-08 22:12 | 73.31900 | 115.11356 | 36040 ft | 491 kts | 105° |
| 2026-05-08 22:13 | 73.30153 | 115.34329 | 36039 ft | 492 kts | 106° |
| 2026-05-08 22:13 | 73.28374 | 115.57336 | 36037 ft | 493 kts | 106° |
| 2026-05-08 22:14 | 73.26567 | 115.80334 | 36036 ft | 494 kts | 106° |
| 2026-05-08 22:14 | 73.24735 | 116.03293 | 36041 ft | 494 kts | 107° |
| 2026-05-08 22:15 | 73.22883 | 116.26134 | 36043 ft | 495 kts | 107° |
| 2026-05-08 22:15 | 73.20997 | 116.49018 | 36047 ft | 495 kts | 107° |
| 2026-05-08 22:16 | 73.19083 | 116.71900 | 36038 ft | 495 kts | 107° |
| 2026-05-08 22:16 | 73.17150 | 116.94661 | 36045 ft | 494 kts | 108° |
| 2026-05-08 22:17 | 73.15190 | 117.17389 | 36047 ft | 494 kts | 108° |
| 2026-05-08 22:17 | 73.13541 | 117.36245 | 36045 ft | 493 kts | 108° |
| 2026-05-08 22:18 | 73.11213 | 117.62479 | 36048 ft | 492 kts | 108° |
| 2026-05-08 22:18 | 73.09531 | 117.81171 | 36052 ft | 492 kts | 108° |
| 2026-05-08 22:19 | 73.07487 | 118.03570 | 36055 ft | 491 kts | 109° |
| 2026-05-08 22:19 | 73.05417 | 118.25946 | 36051 ft | 491 kts | 109° |
| 2026-05-08 22:20 | 73.03328 | 118.48211 | 36056 ft | 491 kts | 109° |
| 2026-05-08 22:20 | 73.01217 | 118.70401 | 36056 ft | 491 kts | 109° |
| 2026-05-08 22:21 | 72.99080 | 118.92551 | 36072 ft | 491 kts | 109° |
| 2026-05-08 22:21 | 72.96918 | 119.14672 | 36055 ft | 491 kts | 110° |
| 2026-05-08 22:22 | 72.94726 | 119.36790 | 36054 ft | 492 kts | 110° |
| 2026-05-08 22:22 | 72.92513 | 119.58831 | 36070 ft | 492 kts | 110° |
| 2026-05-08 22:23 | 72.90273 | 119.80840 | 36072 ft | 492 kts | 110° |
| 2026-05-08 22:23 | 72.88022 | 120.02671 | 36071 ft | 492 kts | 110° |
| 2026-05-08 22:24 | 72.85737 | 120.24554 | 36076 ft | 493 kts | 111° |
| 2026-05-08 22:24 | 72.83422 | 120.46438 | 36078 ft | 493 kts | 111° |
| 2026-05-08 22:25 | 72.81083 | 120.68273 | 36077 ft | 493 kts | 111° |
| 2026-05-08 22:25 | 72.78721 | 120.90038 | 36081 ft | 493 kts | 111° |
| 2026-05-08 22:26 | 72.76334 | 121.11762 | 36079 ft | 493 kts | 111° |
| 2026-05-08 22:26 | 72.73944 | 121.33252 | 36079 ft | 493 kts | 112° |
| 2026-05-08 22:27 | 72.71514 | 121.54832 | 36083 ft | 493 kts | 112° |
| 2026-05-08 22:27 | 72.69055 | 121.76405 | 36084 ft | 493 kts | 112° |
| 2026-05-08 22:28 | 72.66581 | 121.97851 | 36084 ft | 493 kts | 112° |
| 2026-05-08 22:28 | 72.64084 | 122.19238 | 36086 ft | 493 kts | 112° |
| 2026-05-08 22:29 | 72.61559 | 122.40616 | 36091 ft | 493 kts | 113° |
| 2026-05-08 22:29 | 72.59033 | 122.61744 | 36090 ft | 493 kts | 113° |
| 2026-05-08 22:30 | 72.56470 | 122.82940 | 36099 ft | 493 kts | 113° |
| 2026-05-08 22:30 | 72.54605 | 122.98217 | 36093 ft | 493 kts | 113° |
| 2026-05-08 22:31 | 72.52949 | 123.11662 | 36097 ft | 493 kts | 114° |
| 2026-05-08 22:31 | 72.50335 | 123.32708 | 36101 ft | 493 kts | 114° |
| 2026-05-08 22:32 | 72.47692 | 123.53737 | 36097 ft | 493 kts | 114° |
| 2026-05-08 22:32 | 72.45039 | 123.74616 | 36098 ft | 493 kts | 114° |
| 2026-05-08 22:33 | 72.42356 | 123.95493 | 36107 ft | 493 kts | 114° |
| 2026-05-08 22:33 | 72.39647 | 124.16346 | 36103 ft | 492 kts | 115° |
| 2026-05-08 22:34 | 72.36915 | 124.37138 | 36111 ft | 492 kts | 115° |
| 2026-05-08 22:34 | 72.34173 | 124.57789 | 36108 ft | 492 kts | 115° |
| 2026-05-08 22:35 | 72.31405 | 124.78405 | 36110 ft | 492 kts | 115° |
| 2026-05-08 22:35 | 72.28618 | 124.98934 | 36110 ft | 492 kts | 115° |
| 2026-05-08 22:36 | 72.25814 | 125.19381 | 36116 ft | 491 kts | 116° |
| 2026-05-08 22:36 | 72.22988 | 125.39768 | 36120 ft | 491 kts | 116° |
| 2026-05-08 22:37 | 72.20155 | 125.59993 | 36121 ft | 492 kts | 116° |
| 2026-05-08 22:37 | 72.17286 | 125.80264 | 36124 ft | 491 kts | 116° |
| 2026-05-08 22:38 | 72.14398 | 126.00458 | 36128 ft | 491 kts | 116° |
| 2026-05-08 22:38 | 72.11481 | 126.20646 | 36126 ft | 491 kts | 117° |
| 2026-05-08 22:39 | 72.08547 | 126.40741 | 36133 ft | 491 kts | 117° |
| 2026-05-08 22:39 | 72.05599 | 126.60736 | 36132 ft | 491 kts | 117° |
| 2026-05-08 22:40 | 72.02631 | 126.80667 | 36133 ft | 491 kts | 117° |
| 2026-05-08 22:40 | 71.99661 | 127.00407 | 36138 ft | 491 kts | 117° |
| 2026-05-08 22:41 | 71.96654 | 127.20206 | 36144 ft | 491 kts | 117° |
| 2026-05-08 22:41 | 71.93628 | 127.39951 | 36137 ft | 491 kts | 118° |
| 2026-05-08 22:42 | 71.90640 | 127.59755 | 36146 ft | 492 kts | 114° |
| 2026-05-08 22:42 | 71.88531 | 127.80636 | 36171 ft | 488 kts | 107° |
| 2026-05-08 22:43 | 71.86884 | 128.01332 | 36157 ft | 476 kts | 107° |
| 2026-05-08 22:43 | 71.85203 | 128.21884 | 36171 ft | 476 kts | 108° |
| 2026-05-08 22:44 | 71.83472 | 128.42380 | 36183 ft | 477 kts | 108° |
| 2026-05-08 22:44 | 71.81705 | 128.62912 | 36181 ft | 479 kts | 108° |
| 2026-05-08 22:45 | 71.79909 | 128.83495 | 36186 ft | 481 kts | 108° |
| 2026-05-08 22:45 | 71.78089 | 129.04081 | 36188 ft | 482 kts | 109° |
| 2026-05-08 22:46 | 71.76239 | 129.24714 | 36189 ft | 483 kts | 109° |
| 2026-05-08 22:46 | 71.74365 | 129.45343 | 36192 ft | 484 kts | 109° |
| 2026-05-08 22:47 | 71.72469 | 129.65928 | 36192 ft | 484 kts | 109° |
| 2026-05-08 22:47 | 71.70554 | 129.86435 | 36196 ft | 483 kts | 109° |
| 2026-05-08 22:48 | 71.68634 | 130.06766 | 36198 ft | 482 kts | 109° |
| 2026-05-08 22:48 | 71.66721 | 130.27169 | 36201 ft | 482 kts | 107° |
| 2026-05-08 22:49 | 71.65643 | 130.48223 | 36206 ft | 484 kts | 98° |
| 2026-05-08 22:49 | 71.64785 | 130.80153 | 36215 ft | 484 kts | 98° |
| 2026-05-08 22:50 | 71.64163 | 131.01421 | 36213 ft | 483 kts | 98° |
| 2026-05-08 22:50 | 71.63497 | 131.22655 | 36232 ft | 483 kts | 99° |
| 2026-05-08 22:51 | 71.62800 | 131.43870 | 36237 ft | 484 kts | 99° |
| 2026-05-08 22:51 | 71.62087 | 131.64938 | 36248 ft | 484 kts | 99° |
| 2026-05-08 22:52 | 71.61346 | 131.86129 | 36260 ft | 484 kts | 99° |
| 2026-05-08 22:52 | 71.60582 | 132.07324 | 36268 ft | 484 kts | 99° |
| 2026-05-08 22:53 | 71.59794 | 132.28511 | 36269 ft | 484 kts | 99° |
| 2026-05-08 22:53 | 71.58982 | 132.49712 | 36288 ft | 485 kts | 99° |
| 2026-05-08 22:54 | 71.58146 | 132.70875 | 36290 ft | 485 kts | 99° |
| 2026-05-08 22:54 | 71.57287 | 132.92032 | 36297 ft | 485 kts | 100° |
| 2026-05-08 22:55 | 71.56403 | 133.13186 | 36302 ft | 485 kts | 100° |
| 2026-05-08 22:55 | 71.55504 | 133.34155 | 36313 ft | 485 kts | 100° |
| 2026-05-08 22:56 | 71.54575 | 133.55235 | 36325 ft | 484 kts | 101° |
| 2026-05-08 22:56 | 71.53623 | 133.76315 | 36329 ft | 484 kts | 101° |
| 2026-05-08 22:57 | 71.52649 | 133.97346 | 36331 ft | 484 kts | 101° |
| 2026-05-08 22:57 | 71.51665 | 134.18183 | 36343 ft | 484 kts | 101° |
| 2026-05-08 22:58 | 71.50665 | 134.39155 | 36351 ft | 484 kts | 101° |
| 2026-05-08 22:58 | 71.49688 | 134.60127 | 36358 ft | 484 kts | 101° |
| 2026-05-08 22:59 | 71.48694 | 134.81091 | 36366 ft | 484 kts | 101° |
| 2026-05-08 22:59 | 71.47670 | 135.02044 | 36373 ft | 485 kts | 101° |
| 2026-05-08 23:00 | 71.46620 | 135.22988 | 36380 ft | 485 kts | 101° |
| 2026-05-08 23:00 | 71.45544 | 135.43954 | 36388 ft | 486 kts | 101° |
| 2026-05-08 23:01 | 71.44451 | 135.64793 | 36388 ft | 486 kts | 102° |
| 2026-05-08 23:01 | 71.43324 | 135.85838 | 36395 ft | 486 kts | 101° |
| 2026-05-08 23:02 | 71.42189 | 136.06619 | 36402 ft | 486 kts | 102° |
| 2026-05-08 23:02 | 71.41243 | 136.27620 | 36412 ft | 487 kts | 98° |
| 2026-05-08 23:03 | 71.40626 | 136.45167 | 36414 ft | 487 kts | 98° |
| 2026-05-08 23:03 | 71.39878 | 136.66272 | 36420 ft | 487 kts | 98° |
| 2026-05-08 23:04 | 71.39087 | 136.87367 | 36428 ft | 487 kts | 98° |
| 2026-05-08 23:04 | 71.38260 | 137.08426 | 36438 ft | 487 kts | 99° |
| 2026-05-08 23:05 | 71.37413 | 137.29340 | 36433 ft | 487 kts | 99° |
| 2026-05-08 23:05 | 71.36539 | 137.50362 | 36454 ft | 487 kts | 99° |
| 2026-05-08 23:06 | 71.35644 | 137.71345 | 36446 ft | 487 kts | 99° |
| 2026-05-08 23:06 | 71.34723 | 137.92319 | 36452 ft | 487 kts | 99° |
| 2026-05-08 23:07 | 71.33781 | 138.13248 | 36469 ft | 486 kts | 99° |
| 2026-05-08 23:07 | 71.32817 | 138.34145 | 36468 ft | 486 kts | 100° |
| 2026-05-08 23:08 | 71.31830 | 138.55001 | 36475 ft | 486 kts | 100° |
| 2026-05-08 23:08 | 71.30820 | 138.75859 | 36469 ft | 486 kts | 100° |
| 2026-05-08 23:09 | 71.29794 | 138.96561 | 36491 ft | 486 kts | 100° |
| 2026-05-08 23:09 | 71.28744 | 139.17332 | 36494 ft | 485 kts | 101° |
| 2026-05-08 23:10 | 71.27656 | 139.38080 | 36496 ft | 485 kts | 101° |
| 2026-05-08 23:10 | 71.26534 | 139.58789 | 36502 ft | 485 kts | 101° |
| 2026-05-08 23:11 | 71.25392 | 139.79502 | 36509 ft | 485 kts | 101° |
| 2026-05-08 23:11 | 71.24233 | 140.00146 | 36516 ft | 485 kts | 102° |
| 2026-05-08 23:12 | 71.23052 | 140.20770 | 36516 ft | 485 kts | 102° |
| 2026-05-08 23:12 | 71.21847 | 140.41381 | 36523 ft | 485 kts | 102° |
| 2026-05-08 23:13 | 71.20628 | 140.61830 | 36532 ft | 484 kts | 102° |
| 2026-05-08 23:13 | 71.19379 | 140.82382 | 36535 ft | 484 kts | 102° |
| 2026-05-08 23:14 | 71.18110 | 141.02863 | 36540 ft | 484 kts | 103° |
| 2026-05-08 23:14 | 71.16819 | 141.23316 | 36553 ft | 484 kts | 103° |
| 2026-05-08 23:15 | 71.15502 | 141.43795 | 36545 ft | 484 kts | 103° |
| 2026-05-08 23:15 | 71.14166 | 141.64196 | 36555 ft | 484 kts | 103° |
| 2026-05-08 23:16 | 71.12808 | 141.84566 | 36557 ft | 484 kts | 103° |
| 2026-05-08 23:16 | 71.11438 | 142.04768 | 36564 ft | 484 kts | 103° |
| 2026-05-08 23:17 | 71.10038 | 142.25046 | 36564 ft | 484 kts | 104° |
| 2026-05-08 23:17 | 71.08616 | 142.45309 | 36570 ft | 483 kts | 104° |
| 2026-05-08 23:18 | 71.07172 | 142.65533 | 36576 ft | 483 kts | 104° |
| 2026-05-08 23:18 | 71.05704 | 142.85765 | 36582 ft | 483 kts | 104° |
| 2026-05-08 23:19 | 71.04215 | 143.05944 | 36587 ft | 483 kts | 104° |
| 2026-05-08 23:19 | 71.02716 | 143.25952 | 36586 ft | 483 kts | 105° |
| 2026-05-08 23:20 | 71.01187 | 143.46047 | 36593 ft | 483 kts | 105° |
| 2026-05-08 23:20 | 70.99638 | 143.66127 | 36598 ft | 483 kts | 105° |
| 2026-05-08 23:21 | 70.98075 | 143.86184 | 36605 ft | 483 kts | 105° |
| 2026-05-08 23:21 | 70.96556 | 144.06258 | 36605 ft | 483 kts | 105° |
| 2026-05-08 23:22 | 70.95038 | 144.26246 | 36612 ft | 483 kts | 105° |
| 2026-05-08 23:22 | 70.93490 | 144.46231 | 36615 ft | 483 kts | 105° |
| 2026-05-08 23:23 | 70.91912 | 144.66207 | 36618 ft | 483 kts | 105° |
| 2026-05-08 23:23 | 70.90309 | 144.86180 | 36625 ft | 483 kts | 105° |
| 2026-05-08 23:24 | 70.88688 | 145.06089 | 36625 ft | 483 kts | 106° |
| 2026-05-08 23:24 | 70.87046 | 145.25967 | 36637 ft | 483 kts | 106° |
| 2026-05-08 23:25 | 70.85393 | 145.45681 | 36636 ft | 483 kts | 106° |
| 2026-05-08 23:25 | 70.83711 | 145.65464 | 36638 ft | 483 kts | 106° |
| 2026-05-08 23:26 | 70.82005 | 145.85243 | 36639 ft | 482 kts | 107° |
| 2026-05-08 23:26 | 70.80283 | 146.04945 | 36644 ft | 482 kts | 107° |
| 2026-05-08 23:27 | 70.78540 | 146.24649 | 36645 ft | 482 kts | 107° |
| 2026-05-08 23:27 | 70.76774 | 146.44156 | 36655 ft | 482 kts | 108° |
| 2026-05-08 23:28 | 70.74942 | 146.63714 | 36655 ft | 482 kts | 108° |
| 2026-05-08 23:28 | 70.73092 | 146.83223 | 36656 ft | 482 kts | 108° |
| 2026-05-08 23:29 | 70.71229 | 147.02700 | 36659 ft | 482 kts | 108° |
| 2026-05-08 23:29 | 70.69346 | 147.22147 | 36661 ft | 481 kts | 108° |
| 2026-05-08 23:30 | 70.67451 | 147.41473 | 36666 ft | 481 kts | 109° |
| 2026-05-08 23:30 | 70.65529 | 147.60833 | 36664 ft | 481 kts | 109° |
| 2026-05-08 23:31 | 70.63591 | 147.80147 | 36669 ft | 481 kts | 109° |
| 2026-05-08 23:31 | 70.61651 | 147.99414 | 36664 ft | 481 kts | 109° |
| 2026-05-08 23:32 | 70.59765 | 148.18779 | 36670 ft | 481 kts | 109° |
| 2026-05-08 23:32 | 70.57891 | 148.37928 | 36676 ft | 480 kts | 109° |
| 2026-05-08 23:33 | 70.55974 | 148.57154 | 36677 ft | 480 kts | 109° |
| 2026-05-08 23:33 | 70.54035 | 148.76307 | 36685 ft | 479 kts | 109° |
| 2026-05-08 23:34 | 70.52078 | 148.95409 | 36680 ft | 479 kts | 110° |
| 2026-05-08 23:34 | 70.50102 | 149.14467 | 36684 ft | 479 kts | 110° |
| 2026-05-08 23:35 | 70.48120 | 149.33388 | 36699 ft | 479 kts | 110° |
| 2026-05-08 23:35 | 70.46101 | 149.52352 | 36694 ft | 478 kts | 110° |
| 2026-05-08 23:36 | 70.44033 | 149.71233 | 36706 ft | 478 kts | 111° |
| 2026-05-08 23:36 | 70.41940 | 149.90091 | 36702 ft | 478 kts | 111° |
| 2026-05-08 23:37 | 70.39834 | 150.08911 | 36705 ft | 478 kts | 111° |
| 2026-05-08 23:37 | 70.37710 | 150.27700 | 36699 ft | 478 kts | 111° |
| 2026-05-08 23:38 | 70.35569 | 150.46430 | 36712 ft | 478 kts | 111° |
| 2026-05-08 23:38 | 70.33424 | 150.64994 | 36714 ft | 478 kts | 112° |
| 2026-05-08 23:39 | 70.31244 | 150.83651 | 36711 ft | 478 kts | 112° |
| 2026-05-08 23:39 | 70.29052 | 151.02206 | 36715 ft | 477 kts | 112° |
| 2026-05-08 23:40 | 70.26841 | 151.20720 | 36721 ft | 477 kts | 112° |
| 2026-05-08 23:40 | 70.24612 | 151.39188 | 36724 ft | 476 kts | 112° |
| 2026-05-08 23:41 | 70.22368 | 151.57589 | 36732 ft | 476 kts | 112° |
| 2026-05-08 23:41 | 70.20104 | 151.75956 | 36736 ft | 475 kts | 113° |
| 2026-05-08 23:42 | 70.17827 | 151.94239 | 36734 ft | 475 kts | 113° |
| 2026-05-08 23:42 | 70.15546 | 152.12391 | 36740 ft | 475 kts | 113° |
| 2026-05-08 23:43 | 70.13238 | 152.30571 | 36742 ft | 475 kts | 113° |
| 2026-05-08 23:43 | 70.10981 | 152.48811 | 36748 ft | 475 kts | 112° |
| 2026-05-08 23:44 | 70.08746 | 152.67049 | 36755 ft | 474 kts | 113° |
| 2026-05-08 23:44 | 70.06489 | 152.85223 | 36750 ft | 474 kts | 113° |
| 2026-05-08 23:45 | 70.04207 | 153.03342 | 36756 ft | 474 kts | 114° |
| 2026-05-08 23:45 | 70.01922 | 153.21276 | 36762 ft | 473 kts | 114° |
| 2026-05-08 23:46 | 69.99606 | 153.39275 | 36763 ft | 473 kts | 114° |
| 2026-05-08 23:46 | 69.97271 | 153.57245 | 36768 ft | 472 kts | 114° |
| 2026-05-08 23:47 | 69.94924 | 153.75128 | 36763 ft | 472 kts | 114° |
| 2026-05-08 23:47 | 69.92957 | 153.89982 | 36781 ft | 472 kts | 115° |
| 2026-05-08 23:48 | 69.90195 | 154.10638 | 36783 ft | 471 kts | 115° |
| 2026-05-08 23:48 | 69.87804 | 154.28330 | 36781 ft | 470 kts | 115° |
| 2026-05-08 23:49 | 69.85790 | 154.43102 | 36790 ft | 470 kts | 115° |
| 2026-05-08 23:49 | 69.83388 | 154.60586 | 36789 ft | 469 kts | 115° |
| 2026-05-08 23:50 | 69.80961 | 154.78089 | 36791 ft | 468 kts | 116° |
| 2026-05-08 23:50 | 69.78530 | 154.95536 | 36790 ft | 467 kts | 116° |
| 2026-05-08 23:51 | 69.76094 | 155.12934 | 36797 ft | 467 kts | 116° |
| 2026-05-08 23:51 | 69.73645 | 155.30284 | 36800 ft | 466 kts | 116° |
| 2026-05-08 23:52 | 69.71184 | 155.47547 | 36802 ft | 465 kts | 116° |
| 2026-05-08 23:52 | 69.68706 | 155.64765 | 36804 ft | 465 kts | 116° |
| 2026-05-08 23:53 | 69.66211 | 155.81944 | 36811 ft | 465 kts | 117° |
| 2026-05-08 23:53 | 69.63721 | 155.98934 | 36814 ft | 464 kts | 117° |
| 2026-05-08 23:54 | 69.61198 | 156.16003 | 36817 ft | 464 kts | 117° |
| 2026-05-08 23:55 | 69.57390 | 156.41468 | 36825 ft | 463 kts | 117° |
| 2026-05-08 23:55 | 69.54832 | 156.58394 | 36830 ft | 463 kts | 118° |
| 2026-05-08 23:56 | 69.52260 | 156.75263 | 36835 ft | 462 kts | 118° |
| 2026-05-08 23:56 | 69.49675 | 156.92070 | 36835 ft | 462 kts | 118° |
| 2026-05-08 23:57 | 69.47072 | 157.08846 | 36836 ft | 461 kts | 118° |
| 2026-05-08 23:57 | 69.44480 | 157.25411 | 36841 ft | 461 kts | 118° |
| 2026-05-08 23:58 | 69.41861 | 157.42016 | 36847 ft | 460 kts | 119° |
| 2026-05-08 23:58 | 69.39225 | 157.58605 | 36847 ft | 459 kts | 119° |
| 2026-05-08 23:59 | 69.36600 | 157.75003 | 36851 ft | 459 kts | 119° |
| 2026-05-08 23:59 | 69.33958 | 157.91496 | 36855 ft | 458 kts | 119° |
| 2026-05-09 00:00 | 69.31314 | 158.07882 | 36856 ft | 457 kts | 119° |
| 2026-05-09 00:00 | 69.28659 | 158.24206 | 36862 ft | 457 kts | 120° |
| 2026-05-09 00:01 | 69.25986 | 158.40498 | 36865 ft | 456 kts | 120° |
| 2026-05-09 00:01 | 69.23329 | 158.56615 | 36855 ft | 456 kts | 120° |
| 2026-05-09 00:02 | 69.20650 | 158.72795 | 36873 ft | 456 kts | 120° |
| 2026-05-09 00:02 | 69.17962 | 158.88908 | 36877 ft | 455 kts | 120° |
| 2026-05-09 00:03 | 69.15261 | 159.04962 | 36876 ft | 455 kts | 120° |
| 2026-05-09 00:03 | 69.12542 | 159.20995 | 36879 ft | 454 kts | 121° |
| 2026-05-09 00:04 | 69.09818 | 159.36930 | 36886 ft | 454 kts | 121° |
| 2026-05-09 00:04 | 69.07072 | 159.52862 | 36884 ft | 453 kts | 121° |
| 2026-05-09 00:05 | 69.04323 | 159.68693 | 36887 ft | 453 kts | 121° |
| 2026-05-09 00:05 | 69.01557 | 159.84497 | 36890 ft | 452 kts | 121° |
| 2026-05-09 00:06 | 68.98799 | 160.00131 | 36892 ft | 452 kts | 121° |
| 2026-05-09 00:06 | 68.96014 | 160.15804 | 36894 ft | 451 kts | 121° |
| 2026-05-09 00:07 | 68.93220 | 160.31425 | 36898 ft | 451 kts | 121° |
| 2026-05-09 00:07 | 68.90405 | 160.47024 | 36902 ft | 451 kts | 122° |
| 2026-05-09 00:08 | 68.87538 | 160.62471 | 36903 ft | 450 kts | 122° |
| 2026-05-09 00:08 | 68.84641 | 160.77856 | 36900 ft | 450 kts | 122° |
| 2026-05-09 00:09 | 68.81738 | 160.93215 | 36910 ft | 450 kts | 122° |
| 2026-05-09 00:09 | 68.78842 | 161.08457 | 36912 ft | 451 kts | 122° |
| 2026-05-09 00:10 | 68.75916 | 161.23757 | 36916 ft | 451 kts | 123° |
| 2026-05-09 00:10 | 68.73064 | 161.39173 | 36914 ft | 453 kts | 120° |
| 2026-05-09 00:11 | 68.70476 | 161.55004 | 36912 ft | 454 kts | 119° |
| 2026-05-09 00:11 | 68.67881 | 161.70847 | 36927 ft | 454 kts | 119° |
| 2026-05-09 00:12 | 68.65274 | 161.86528 | 36932 ft | 454 kts | 120° |
| 2026-05-09 00:12 | 68.62616 | 162.02354 | 36928 ft | 454 kts | 120° |
| 2026-05-09 00:13 | 68.59980 | 162.17941 | 36933 ft | 454 kts | 120° |
| 2026-05-09 00:13 | 68.57296 | 162.33596 | 36939 ft | 454 kts | 120° |
| 2026-05-09 00:14 | 68.54573 | 162.49178 | 36938 ft | 453 kts | 120° |
| 2026-05-09 00:14 | 68.51846 | 162.64681 | 36945 ft | 453 kts | 120° |
| 2026-05-09 00:15 | 68.49112 | 162.80130 | 36939 ft | 451 kts | 120° |
| 2026-05-09 00:15 | 68.46391 | 162.95396 | 36953 ft | 450 kts | 121° |
| 2026-05-09 00:16 | 68.43650 | 163.10669 | 36963 ft | 449 kts | 121° |
| 2026-05-09 00:16 | 68.40893 | 163.25912 | 36961 ft | 449 kts | 121° |
| 2026-05-09 00:17 | 68.38125 | 163.41099 | 36964 ft | 448 kts | 121° |
| 2026-05-09 00:17 | 68.35348 | 163.56229 | 36967 ft | 449 kts | 121° |
| 2026-05-09 00:18 | 68.32552 | 163.71342 | 36963 ft | 449 kts | 121° |
| 2026-05-09 00:18 | 68.29744 | 163.86417 | 36967 ft | 448 kts | 121° |
| 2026-05-09 00:19 | 68.26932 | 164.01407 | 36978 ft | 448 kts | 121° |
| 2026-05-09 00:19 | 68.24103 | 164.16390 | 36980 ft | 448 kts | 121° |
| 2026-05-09 00:20 | 68.21261 | 164.31328 | 36983 ft | 448 kts | 121° |
| 2026-05-09 00:20 | 68.18390 | 164.46202 | 36989 ft | 448 kts | 122° |
| 2026-05-09 00:21 | 68.15524 | 164.60953 | 37001 ft | 448 kts | 122° |
| 2026-05-09 00:21 | 68.12629 | 164.75752 | 36992 ft | 448 kts | 122° |
| 2026-05-09 00:22 | 68.09726 | 164.90508 | 36999 ft | 448 kts | 122° |
| 2026-05-09 00:22 | 68.06805 | 165.05271 | 37007 ft | 448 kts | 122° |
| 2026-05-09 00:23 | 68.03876 | 165.19970 | 37003 ft | 448 kts | 122° |
| 2026-05-09 00:23 | 68.00935 | 165.34635 | 37011 ft | 448 kts | 122° |
| 2026-05-09 00:24 | 67.97980 | 165.49261 | 37014 ft | 448 kts | 122° |
| 2026-05-09 00:24 | 67.95012 | 165.63851 | 37016 ft | 448 kts | 122° |
| 2026-05-09 00:25 | 67.92038 | 165.78373 | 37018 ft | 448 kts | 122° |
| 2026-05-09 00:25 | 67.89043 | 165.92901 | 37023 ft | 448 kts | 122° |
| 2026-05-09 00:26 | 67.86062 | 166.07272 | 37028 ft | 447 kts | 122° |
| 2026-05-09 00:26 | 67.83048 | 166.21712 | 37020 ft | 447 kts | 122° |
| 2026-05-09 00:27 | 67.80041 | 166.36108 | 37029 ft | 447 kts | 122° |
| 2026-05-09 00:27 | 67.77021 | 166.50497 | 37020 ft | 447 kts | 122° |
| 2026-05-09 00:28 | 67.74013 | 166.64728 | 37050 ft | 446 kts | 122° |
| 2026-05-09 00:28 | 67.70973 | 166.79002 | 37035 ft | 447 kts | 123° |
| 2026-05-09 00:29 | 67.67918 | 166.93254 | 37026 ft | 447 kts | 123° |
| 2026-05-09 00:29 | 67.64859 | 167.07442 | 37029 ft | 446 kts | 123° |
| 2026-05-09 00:30 | 67.61782 | 167.21607 | 37033 ft | 446 kts | 123° |
| 2026-05-09 00:30 | 67.58691 | 167.35747 | 37061 ft | 446 kts | 123° |
| 2026-05-09 00:31 | 67.55616 | 167.49740 | 37055 ft | 446 kts | 123° |
| 2026-05-09 00:31 | 67.52506 | 167.63794 | 37056 ft | 446 kts | 123° |
| 2026-05-09 00:32 | 67.49398 | 167.77826 | 37057 ft | 446 kts | 123° |
| 2026-05-09 00:32 | 67.46275 | 167.91854 | 37062 ft | 447 kts | 123° |
| 2026-05-09 00:33 | 67.43142 | 168.05832 | 37061 ft | 447 kts | 123° |
| 2026-05-09 00:33 | 67.39993 | 168.19792 | 37069 ft | 447 kts | 123° |
| 2026-05-09 00:34 | 67.36850 | 168.33636 | 37073 ft | 447 kts | 123° |
| 2026-05-09 00:34 | 67.33679 | 168.47512 | 37075 ft | 447 kts | 123° |
| 2026-05-09 00:35 | 67.30495 | 168.61359 | 37080 ft | 447 kts | 123° |
| 2026-05-09 00:35 | 67.27296 | 168.75182 | 37076 ft | 447 kts | 123° |
| 2026-05-09 00:36 | 67.24096 | 168.88929 | 37081 ft | 447 kts | 123° |
| 2026-05-09 00:36 | 67.21423 | 169.00351 | 37081 ft | 446 kts | 124° |
| 2026-05-09 00:37 | 67.17680 | 169.16246 | 37084 ft | 446 kts | 124° |
| 2026-05-09 00:37 | 67.14453 | 169.29887 | 37089 ft | 446 kts | 124° |
| 2026-05-09 00:38 | 67.11756 | 169.41233 | 37091 ft | 446 kts | 124° |
| 2026-05-09 00:38 | 67.08507 | 169.54820 | 37092 ft | 447 kts | 124° |
| 2026-05-09 00:39 | 67.05235 | 169.68424 | 37097 ft | 447 kts | 124° |
| 2026-05-09 00:39 | 67.01952 | 169.81982 | 37091 ft | 448 kts | 124° |
| 2026-05-09 00:40 | 66.98652 | 169.95529 | 37092 ft | 449 kts | 124° |
| 2026-05-09 00:40 | 66.95343 | 170.09029 | 37093 ft | 449 kts | 124° |
| 2026-05-09 00:41 | 66.90373 | 170.29170 | 37093 ft | 449 kts | 124° |
| 2026-05-09 00:41 | 66.87026 | 170.42627 | 37099 ft | 450 kts | 124° |
| 2026-05-09 00:42 | 66.83665 | 170.56090 | 37092 ft | 450 kts | 124° |
| 2026-05-09 00:42 | 66.80304 | 170.69489 | 37100 ft | 450 kts | 124° |
| 2026-05-09 00:43 | 66.76946 | 170.82796 | 37096 ft | 451 kts | 124° |
| 2026-05-09 00:43 | 66.73555 | 170.96161 | 37094 ft | 451 kts | 124° |
| 2026-05-09 00:44 | 66.70156 | 171.09508 | 37099 ft | 451 kts | 124° |
| 2026-05-09 00:44 | 66.66765 | 171.22836 | 37102 ft | 451 kts | 124° |
| 2026-05-09 00:45 | 66.63363 | 171.36148 | 37098 ft | 451 kts | 124° |
| 2026-05-09 00:45 | 66.59973 | 171.49324 | 37107 ft | 451 kts | 124° |
| 2026-05-09 00:46 | 66.56526 | 171.62635 | 37096 ft | 451 kts | 124° |
| 2026-05-09 00:46 | 66.53114 | 171.75734 | 37096 ft | 451 kts | 124° |
| 2026-05-09 00:47 | 66.49664 | 171.88894 | 37114 ft | 451 kts | 125° |
| 2026-05-09 00:47 | 66.46196 | 172.02051 | 37100 ft | 452 kts | 125° |
| 2026-05-09 00:48 | 66.42717 | 172.15167 | 37093 ft | 452 kts | 125° |
| 2026-05-09 00:48 | 66.39227 | 172.28249 | 37088 ft | 453 kts | 125° |
| 2026-05-09 00:49 | 66.35742 | 172.41236 | 37113 ft | 453 kts | 125° |
| 2026-05-09 00:49 | 66.32219 | 172.54284 | 37112 ft | 454 kts | 125° |
| 2026-05-09 00:50 | 66.28687 | 172.67294 | 37110 ft | 454 kts | 125° |
| 2026-05-09 00:50 | 66.25135 | 172.80299 | 37104 ft | 454 kts | 125° |
| 2026-05-09 00:51 | 66.21591 | 172.93201 | 37103 ft | 455 kts | 125° |
| 2026-05-09 00:51 | 66.18022 | 173.06123 | 37105 ft | 455 kts | 125° |
| 2026-05-09 00:52 | 66.14440 | 173.19022 | 37103 ft | 456 kts | 126° |
| 2026-05-09 00:52 | 66.10877 | 173.32009 | 37104 ft | 456 kts | 125° |
| 2026-05-09 00:53 | 66.07320 | 173.44981 | 37100 ft | 456 kts | 125° |
| 2026-05-09 00:53 | 66.03730 | 173.57843 | 37105 ft | 456 kts | 125° |
| 2026-05-09 00:54 | 66.00122 | 173.70707 | 37104 ft | 457 kts | 125° |
| 2026-05-09 00:54 | 65.96512 | 173.83531 | 37103 ft | 457 kts | 125° |
| 2026-05-09 00:55 | 65.92906 | 173.96273 | 37108 ft | 457 kts | 126° |
| 2026-05-09 00:55 | 65.89264 | 174.09053 | 37102 ft | 457 kts | 126° |
| 2026-05-09 00:56 | 65.85614 | 174.21799 | 37107 ft | 458 kts | 126° |
| 2026-05-09 00:56 | 65.81945 | 174.34550 | 37102 ft | 458 kts | 126° |
| 2026-05-09 00:57 | 65.78270 | 174.47259 | 37111 ft | 459 kts | 126° |
| 2026-05-09 00:57 | 65.74570 | 174.59934 | 37101 ft | 459 kts | 126° |
| 2026-05-09 00:58 | 65.70815 | 174.72374 | 37107 ft | 459 kts | 127° |
| 2026-05-09 00:58 | 65.67012 | 174.84851 | 37101 ft | 460 kts | 127° |
| 2026-05-09 00:59 | 65.63202 | 174.97330 | 37106 ft | 460 kts | 127° |
| 2026-05-09 00:59 | 65.59388 | 175.09775 | 37102 ft | 460 kts | 127° |
| 2026-05-09 01:00 | 65.55567 | 175.22186 | 37104 ft | 460 kts | 127° |
| 2026-05-09 01:00 | 65.51728 | 175.34570 | 37103 ft | 461 kts | 127° |
| 2026-05-09 01:01 | 65.47877 | 175.46924 | 37095 ft | 461 kts | 127° |
| 2026-05-09 01:01 | 65.44045 | 175.59161 | 37100 ft | 461 kts | 127° |
| 2026-05-09 01:02 | 65.40180 | 175.71442 | 37102 ft | 461 kts | 127° |
| 2026-05-09 01:02 | 65.36298 | 175.83708 | 37102 ft | 461 kts | 127° |
| 2026-05-09 01:03 | 65.32408 | 175.95934 | 37095 ft | 461 kts | 127° |
| 2026-05-09 01:03 | 65.28510 | 176.08128 | 37095 ft | 462 kts | 127° |
| 2026-05-09 01:04 | 65.24703 | 176.20450 | 37094 ft | 462 kts | 122° |
| 2026-05-09 01:04 | 65.21745 | 176.34034 | 37092 ft | 462 kts | 111° |
| 2026-05-09 01:05 | 65.19488 | 176.48386 | 37097 ft | 463 kts | 110° |
| 2026-05-09 01:06 | 65.16113 | 176.69957 | 37086 ft | 464 kts | 111° |
| 2026-05-09 01:06 | 65.13829 | 176.84247 | 37088 ft | 464 kts | 111° |
| 2026-05-09 01:07 | 65.11509 | 176.98589 | 37085 ft | 465 kts | 111° |
| 2026-05-09 01:07 | 65.09175 | 177.12902 | 37080 ft | 465 kts | 111° |
| 2026-05-09 01:08 | 65.06822 | 177.27229 | 37082 ft | 466 kts | 111° |
| 2026-05-09 01:08 | 65.04460 | 177.41505 | 37093 ft | 466 kts | 111° |
| 2026-05-09 01:09 | 65.02097 | 177.55679 | 37098 ft | 466 kts | 111° |
| 2026-05-09 01:09 | 64.99687 | 177.70033 | 37097 ft | 466 kts | 111° |
| 2026-05-09 01:10 | 64.97294 | 177.84173 | 37098 ft | 466 kts | 111° |
| 2026-05-09 01:10 | 64.94874 | 177.98370 | 37095 ft | 466 kts | 112° |
| 2026-05-09 01:11 | 64.92439 | 178.12550 | 37100 ft | 466 kts | 112° |
| 2026-05-09 01:11 | 64.89981 | 178.26765 | 37105 ft | 467 kts | 112° |
| 2026-05-09 01:12 | 64.87517 | 178.40904 | 37110 ft | 467 kts | 112° |
| 2026-05-09 01:12 | 64.85039 | 178.55022 | 37122 ft | 467 kts | 112° |
| 2026-05-09 01:13 | 64.82561 | 178.69042 | 37123 ft | 467 kts | 112° |
| 2026-05-09 01:13 | 64.80055 | 178.83116 | 37120 ft | 468 kts | 112° |
| 2026-05-09 01:14 | 64.77527 | 178.97219 | 37124 ft | 468 kts | 112° |
| 2026-05-09 01:14 | 64.74989 | 179.11275 | 37124 ft | 468 kts | 112° |
| 2026-05-09 01:15 | 64.72442 | 179.25295 | 37124 ft | 468 kts | 112° |
| 2026-05-09 01:15 | 64.70235 | 179.39496 | 37124 ft | 467 kts | 104° |
| 2026-05-09 01:16 | 64.69121 | 179.54453 | 37127 ft | 467 kts | 94° |
| 2026-05-09 01:16 | 64.68743 | 179.69606 | 37128 ft | 468 kts | 93° |
| 2026-05-09 01:17 | 64.68110 | 179.92395 | 37129 ft | 468 kts | 94° |
| 2026-05-09 01:17 | 64.67581 | -179.92453 | 37128 ft | 469 kts | 95° |
| 2026-05-09 01:18 | 64.67018 | -179.77278 | 37127 ft | 469 kts | 95° |
| 2026-05-09 01:18 | 64.66450 | -179.62183 | 37129 ft | 469 kts | 95° |
| 2026-05-09 01:19 | 64.65869 | -179.46996 | 37127 ft | 469 kts | 95° |
| 2026-05-09 01:19 | 64.65274 | -179.31805 | 37133 ft | 470 kts | 95° |
| 2026-05-09 01:20 | 64.64664 | -179.16632 | 37131 ft | 470 kts | 95° |
| 2026-05-09 01:20 | 64.64037 | -179.01442 | 37129 ft | 470 kts | 95° |
| 2026-05-09 01:21 | 64.63399 | -178.86372 | 37129 ft | 470 kts | 95° |
| 2026-05-09 01:21 | 64.62741 | -178.71183 | 37127 ft | 470 kts | 95° |
| 2026-05-09 01:22 | 64.62181 | -178.58549 | 37131 ft | 470 kts | 95° |
| 2026-05-09 01:22 | 64.61383 | -178.40961 | 37129 ft | 470 kts | 96° |
| 2026-05-09 01:23 | 64.60793 | -178.28261 | 37124 ft | 470 kts | 96° |
| 2026-05-09 01:23 | 64.60081 | -178.13227 | 37123 ft | 470 kts | 96° |
| 2026-05-09 01:24 | 64.59348 | -177.98088 | 37127 ft | 470 kts | 96° |
| 2026-05-09 01:24 | 64.58602 | -177.82999 | 37125 ft | 470 kts | 96° |
| 2026-05-09 01:25 | 64.57837 | -177.67858 | 37125 ft | 470 kts | 96° |
| 2026-05-09 01:25 | 64.57056 | -177.52722 | 37126 ft | 470 kts | 96° |
| 2026-05-09 01:26 | 64.56265 | -177.37692 | 37126 ft | 471 kts | 96° |
| 2026-05-09 01:26 | 64.55454 | -177.22585 | 37130 ft | 471 kts | 96° |
| 2026-05-09 01:27 | 64.54627 | -177.07469 | 37126 ft | 471 kts | 96° |
| 2026-05-09 01:27 | 64.53784 | -176.92358 | 37127 ft | 472 kts | 97° |
| 2026-05-09 01:28 | 64.52924 | -176.77228 | 37131 ft | 472 kts | 97° |
| 2026-05-09 01:28 | 64.52048 | -176.62099 | 37131 ft | 472 kts | 97° |
| 2026-05-09 01:29 | 64.51156 | -176.46986 | 37130 ft | 472 kts | 97° |
| 2026-05-09 01:29 | 64.50249 | -176.31871 | 37126 ft | 473 kts | 97° |
| 2026-05-09 01:30 | 64.49330 | -176.16831 | 37128 ft | 473 kts | 97° |
| 2026-05-09 01:30 | 64.48391 | -176.01719 | 37132 ft | 474 kts | 97° |
| 2026-05-09 01:31 | 64.47434 | -175.86589 | 37136 ft | 474 kts | 97° |
| 2026-05-09 01:31 | 64.46462 | -175.71465 | 37120 ft | 475 kts | 97° |
| 2026-05-09 01:32 | 64.45471 | -175.56307 | 37118 ft | 475 kts | 97° |
| 2026-05-09 01:32 | 64.44472 | -175.41275 | 37136 ft | 475 kts | 97° |
| 2026-05-09 01:33 | 64.43448 | -175.26113 | 37128 ft | 476 kts | 97° |
| 2026-05-09 01:33 | 64.42409 | -175.10967 | 37130 ft | 476 kts | 97° |
| 2026-05-09 01:34 | 64.41356 | -174.95850 | 37137 ft | 476 kts | 97° |
| 2026-05-09 01:34 | 64.40292 | -174.80809 | 37127 ft | 477 kts | 97° |
| 2026-05-09 01:35 | 64.39207 | -174.65685 | 37120 ft | 477 kts | 97° |
| 2026-05-09 01:35 | 64.38108 | -174.50578 | 37126 ft | 477 kts | 97° |
| 2026-05-09 01:36 | 64.37538 | -174.35369 | 37115 ft | 474 kts | 88° |
| 2026-05-09 01:36 | 64.37635 | -174.20134 | 37123 ft | 474 kts | 87° |
| 2026-05-09 01:37 | 64.37724 | -174.04893 | 37122 ft | 474 kts | 87° |
| 2026-05-09 01:37 | 64.37763 | -173.89617 | 37118 ft | 475 kts | 88° |
| 2026-05-09 01:38 | 64.37773 | -173.74459 | 37114 ft | 475 kts | 88° |
| 2026-05-09 01:38 | 64.37767 | -173.59178 | 37111 ft | 475 kts | 88° |
| 2026-05-09 01:39 | 64.37747 | -173.43897 | 37103 ft | 475 kts | 88° |
| 2026-05-09 01:39 | 64.37715 | -173.28619 | 37109 ft | 475 kts | 88° |
| 2026-05-09 01:40 | 64.37674 | -173.13357 | 37103 ft | 475 kts | 88° |
| 2026-05-09 01:40 | 64.37641 | -172.98054 | 37117 ft | 475 kts | 88° |
| 2026-05-09 01:41 | 64.37594 | -172.82775 | 37102 ft | 476 kts | 88° |
| 2026-05-09 01:41 | 64.37529 | -172.67581 | 37107 ft | 476 kts | 88° |
| 2026-05-09 01:42 | 64.37445 | -172.52276 | 37109 ft | 476 kts | 88° |
| 2026-05-09 01:42 | 64.37347 | -172.37002 | 37112 ft | 476 kts | 88° |
| 2026-05-09 01:43 | 64.37232 | -172.21714 | 37112 ft | 476 kts | 88° |
| 2026-05-09 01:43 | 64.37102 | -172.06424 | 37107 ft | 476 kts | 88° |
| 2026-05-09 01:44 | 64.36959 | -171.91198 | 37109 ft | 476 kts | 88° |
| 2026-05-09 01:44 | 64.36832 | -171.75891 | 37111 ft | 475 kts | 86° |
| 2026-05-09 01:45 | 64.37336 | -171.60724 | 37109 ft | 473 kts | 82° |
| 2026-05-09 01:45 | 64.37964 | -171.45578 | 37102 ft | 474 kts | 82° |
| 2026-05-09 01:46 | 64.38537 | -171.30385 | 37107 ft | 474 kts | 82° |
| 2026-05-09 01:46 | 64.39078 | -171.15196 | 37108 ft | 474 kts | 83° |
| 2026-05-09 01:47 | 64.39031 | -170.99957 | 37100 ft | 478 kts | 92° |
| 2026-05-09 01:47 | 64.38341 | -170.84642 | 37095 ft | 479 kts | 93° |
| 2026-05-09 01:48 | 64.37620 | -170.69329 | 37101 ft | 479 kts | 93° |
| 2026-05-09 01:48 | 64.36915 | -170.54007 | 37094 ft | 480 kts | 92° |
| 2026-05-09 01:49 | 64.36213 | -170.38687 | 37092 ft | 480 kts | 93° |
| 2026-05-09 01:49 | 64.35498 | -170.23343 | 37094 ft | 480 kts | 93° |
| 2026-05-09 01:50 | 64.34766 | -170.08001 | 37094 ft | 480 kts | 93° |
| 2026-05-09 01:50 | 64.34016 | -169.92668 | 37089 ft | 481 kts | 93° |
| 2026-05-09 01:51 | 64.33254 | -169.77434 | 37084 ft | 481 kts | 93° |
| 2026-05-09 01:51 | 64.32472 | -169.62119 | 37084 ft | 481 kts | 93° |
| 2026-05-09 01:52 | 64.31673 | -169.46794 | 37080 ft | 481 kts | 93° |
| 2026-05-09 01:52 | 64.30858 | -169.31473 | 37081 ft | 481 kts | 94° |
| 2026-05-09 01:53 | 64.30027 | -169.16160 | 37076 ft | 482 kts | 94° |
| 2026-05-09 01:53 | 64.29180 | -169.00855 | 37074 ft | 482 kts | 94° |
| 2026-05-09 01:54 | 64.28315 | -168.85526 | 37072 ft | 482 kts | 94° |
| 2026-05-09 01:54 | 64.27433 | -168.70203 | 37069 ft | 482 kts | 94° |
| 2026-05-09 01:55 | 64.26542 | -168.54998 | 37063 ft | 483 kts | 94° |
| 2026-05-09 01:55 | 64.25627 | -168.39658 | 37060 ft | 483 kts | 94° |
| 2026-05-09 01:56 | 64.24697 | -168.24347 | 37058 ft | 483 kts | 94° |
| 2026-05-09 01:56 | 64.23750 | -168.09039 | 37053 ft | 484 kts | 94° |
| 2026-05-09 01:57 | 64.22786 | -167.93724 | 37052 ft | 484 kts | 94° |
| 2026-05-09 01:57 | 64.21806 | -167.78413 | 37049 ft | 484 kts | 94° |
| 2026-05-09 01:58 | 64.20816 | -167.63213 | 37043 ft | 485 kts | 95° |
| 2026-05-09 01:58 | 64.19802 | -167.47900 | 37039 ft | 485 kts | 95° |
| 2026-05-09 01:59 | 64.18772 | -167.32589 | 37039 ft | 485 kts | 95° |
| 2026-05-09 01:59 | 64.17724 | -167.17273 | 37040 ft | 486 kts | 95° |
| 2026-05-09 02:00 | 64.16661 | -167.01976 | 37038 ft | 486 kts | 95° |
| 2026-05-09 02:00 | 64.15579 | -166.86644 | 37032 ft | 486 kts | 95° |
| 2026-05-09 02:01 | 64.14485 | -166.71351 | 37033 ft | 487 kts | 95° |
| 2026-05-09 02:01 | 64.13379 | -166.56130 | 37014 ft | 487 kts | 95° |
| 2026-05-09 02:02 | 64.12276 | -166.40822 | 37016 ft | 487 kts | 95° |
| 2026-05-09 02:02 | 64.11170 | -166.25517 | 37018 ft | 487 kts | 95° |
| 2026-05-09 02:03 | 64.10041 | -166.10176 | 37015 ft | 488 kts | 95° |
| 2026-05-09 02:03 | 64.08940 | -165.94862 | 37010 ft | 488 kts | 95° |
| 2026-05-09 02:04 | 64.07860 | -165.79615 | 37008 ft | 489 kts | 95° |
| 2026-05-09 02:04 | 64.06757 | -165.64279 | 37006 ft | 489 kts | 95° |
| 2026-05-09 02:05 | 64.05632 | -165.48963 | 37003 ft | 489 kts | 95° |
| 2026-05-09 02:05 | 64.04485 | -165.33618 | 36998 ft | 490 kts | 96° |
| 2026-05-09 02:06 | 64.03323 | -165.18295 | 36994 ft | 490 kts | 96° |
| 2026-05-09 02:07 | 64.01546 | -164.95295 | 36991 ft | 491 kts | 96° |
| 2026-05-09 02:07 | 64.00347 | -164.80052 | 36989 ft | 491 kts | 96° |
| 2026-05-09 02:08 | 63.99126 | -164.64747 | 36986 ft | 491 kts | 96° |
| 2026-05-09 02:08 | 63.97886 | -164.49425 | 36984 ft | 492 kts | 96° |
| 2026-05-09 02:09 | 63.96843 | -164.36690 | 36981 ft | 492 kts | 96° |
| 2026-05-09 02:09 | 63.95572 | -164.21364 | 36977 ft | 492 kts | 97° |
| 2026-05-09 02:10 | 63.94282 | -164.06032 | 36983 ft | 493 kts | 97° |
| 2026-05-09 02:10 | 63.92978 | -163.90724 | 36969 ft | 493 kts | 97° |
| 2026-05-09 02:11 | 63.91655 | -163.75409 | 36975 ft | 494 kts | 97° |
| 2026-05-09 02:11 | 63.90323 | -163.60179 | 36970 ft | 494 kts | 97° |
| 2026-05-09 02:12 | 63.88965 | -163.44860 | 36963 ft | 495 kts | 97° |
| 2026-05-09 02:12 | 63.87591 | -163.29547 | 36959 ft | 495 kts | 98° |
| 2026-05-09 02:13 | 63.86200 | -163.14248 | 36962 ft | 496 kts | 98° |
| 2026-05-09 02:13 | 63.84788 | -162.98911 | 36954 ft | 496 kts | 98° |
| 2026-05-09 02:14 | 63.83361 | -162.83605 | 36955 ft | 496 kts | 98° |
| 2026-05-09 02:14 | 63.81925 | -162.68393 | 36950 ft | 497 kts | 98° |
| 2026-05-09 02:15 | 63.80465 | -162.53106 | 36948 ft | 497 kts | 99° |
| 2026-05-09 02:15 | 63.78987 | -162.37813 | 36952 ft | 497 kts | 99° |
| 2026-05-09 02:16 | 63.77494 | -162.22551 | 36945 ft | 497 kts | 99° |
| 2026-05-09 02:16 | 63.75984 | -162.07299 | 36945 ft | 497 kts | 99° |
| 2026-05-09 02:17 | 63.74456 | -161.92039 | 36940 ft | 497 kts | 99° |
| 2026-05-09 02:17 | 63.72921 | -161.76892 | 36939 ft | 498 kts | 100° |
| 2026-05-09 02:18 | 63.71361 | -161.61669 | 36938 ft | 498 kts | 100° |
| 2026-05-09 02:18 | 63.69785 | -161.46465 | 36941 ft | 498 kts | 100° |
| 2026-05-09 02:19 | 63.68192 | -161.31271 | 36933 ft | 498 kts | 100° |
| 2026-05-09 02:19 | 63.66582 | -161.16076 | 36932 ft | 498 kts | 101° |
| 2026-05-09 02:20 | 63.64957 | -161.00912 | 36931 ft | 498 kts | 101° |
| 2026-05-09 02:20 | 63.63324 | -160.85843 | 36936 ft | 499 kts | 101° |
| 2026-05-09 02:21 | 63.61662 | -160.70658 | 36937 ft | 499 kts | 101° |
| 2026-05-09 02:21 | 63.59983 | -160.55494 | 36926 ft | 500 kts | 102° |
| 2026-05-09 02:22 | 63.58288 | -160.40348 | 36917 ft | 500 kts | 102° |
| 2026-05-09 02:22 | 63.56586 | -160.25303 | 36900 ft | 500 kts | 102° |
| 2026-05-09 02:23 | 63.54860 | -160.10190 | 36894 ft | 499 kts | 102° |
| 2026-05-09 02:23 | 63.53116 | -159.95083 | 36886 ft | 499 kts | 102° |
| 2026-05-09 02:24 | 63.51357 | -159.79997 | 36879 ft | 499 kts | 103° |
| 2026-05-09 02:24 | 63.49744 | -159.66310 | 36874 ft | 499 kts | 103° |
| 2026-05-09 02:25 | 63.47997 | -159.51632 | 36871 ft | 499 kts | 103° |
| 2026-05-09 02:25 | 63.46210 | -159.36741 | 36853 ft | 499 kts | 103° |
| 2026-05-09 02:26 | 63.44517 | -159.22777 | 36846 ft | 499 kts | 103° |
| 2026-05-09 02:26 | 63.42683 | -159.07787 | 36850 ft | 499 kts | 103° |
| 2026-05-09 02:27 | 63.40835 | -158.92840 | 36843 ft | 500 kts | 104° |
| 2026-05-09 02:27 | 63.38972 | -158.77908 | 36843 ft | 500 kts | 104° |
| 2026-05-09 02:28 | 63.37087 | -158.62952 | 36835 ft | 500 kts | 104° |
| 2026-05-09 02:28 | 63.35189 | -158.48031 | 36831 ft | 500 kts | 104° |
| 2026-05-09 02:29 | 63.33276 | -158.33140 | 36828 ft | 500 kts | 104° |
| 2026-05-09 02:29 | 63.31346 | -158.18255 | 36821 ft | 500 kts | 104° |
| 2026-05-09 02:30 | 63.29414 | -158.03493 | 36806 ft | 501 kts | 105° |
| 2026-05-09 02:30 | 63.27445 | -157.88587 | 36794 ft | 502 kts | 105° |
| 2026-05-09 02:31 | 63.25462 | -157.73713 | 36767 ft | 503 kts | 105° |
| 2026-05-09 02:31 | 63.23453 | -157.58778 | 36756 ft | 505 kts | 105° |
| 2026-05-09 02:32 | 63.21437 | -157.43929 | 36757 ft | 506 kts | 106° |
| 2026-05-09 02:32 | 63.19395 | -157.29026 | 36759 ft | 507 kts | 106° |
| 2026-05-09 02:33 | 63.17318 | -157.14003 | 36766 ft | 511 kts | 106° |
| 2026-05-09 02:33 | 63.15227 | -156.99022 | 36761 ft | 508 kts | 106° |
| 2026-05-09 02:34 | 63.13117 | -156.84022 | 36775 ft | 511 kts | 107° |
| 2026-05-09 02:34 | 63.10993 | -156.69074 | 36802 ft | 510 kts | 107° |
| 2026-05-09 02:35 | 63.08848 | -156.54100 | 36794 ft | 510 kts | 107° |
| 2026-05-09 02:35 | 63.06708 | -156.39297 | 36782 ft | 509 kts | 107° |
| 2026-05-09 02:36 | 63.04609 | -156.24894 | 36773 ft | 508 kts | 108° |
| 2026-05-09 02:36 | 63.02502 | -156.10558 | 36767 ft | 509 kts | 108° |
| 2026-05-09 02:37 | 63.00306 | -155.95738 | 36760 ft | 509 kts | 108° |
| 2026-05-09 02:37 | 62.98090 | -155.80907 | 36739 ft | 507 kts | 108° |
| 2026-05-09 02:38 | 62.95845 | -155.66201 | 36742 ft | 507 kts | 111° |
| 2026-05-09 02:38 | 62.92766 | -155.52257 | 36737 ft | 507 kts | 122° |
| 2026-05-09 02:39 | 62.89151 | -155.39573 | 36734 ft | 503 kts | 122° |
| 2026-05-09 02:39 | 62.85442 | -155.26638 | 36737 ft | 499 kts | 122° |
| 2026-05-09 02:40 | 62.81774 | -155.13744 | 36734 ft | 497 kts | 122° |
| 2026-05-09 02:40 | 62.78155 | -155.01013 | 36734 ft | 495 kts | 122° |
| 2026-05-09 02:41 | 62.74508 | -154.88253 | 36737 ft | 494 kts | 122° |
| 2026-05-09 02:41 | 62.70848 | -154.75531 | 36736 ft | 495 kts | 123° |
| 2026-05-09 02:42 | 62.67166 | -154.62805 | 36735 ft | 496 kts | 123° |
| 2026-05-09 02:42 | 62.63489 | -154.50167 | 36729 ft | 497 kts | 123° |
| 2026-05-09 02:43 | 62.59781 | -154.37496 | 36732 ft | 497 kts | 123° |
| 2026-05-09 02:43 | 62.56052 | -154.24820 | 36727 ft | 497 kts | 123° |
| 2026-05-09 02:44 | 62.52310 | -154.12162 | 36728 ft | 497 kts | 123° |
| 2026-05-09 02:44 | 62.48592 | -153.99664 | 36727 ft | 497 kts | 123° |
| 2026-05-09 02:45 | 62.44811 | -153.87047 | 36725 ft | 496 kts | 124° |
| 2026-05-09 02:45 | 62.41072 | -153.74638 | 36722 ft | 495 kts | 124° |
| 2026-05-09 02:46 | 62.37301 | -153.62183 | 36718 ft | 495 kts | 124° |
| 2026-05-09 02:46 | 62.33527 | -153.49779 | 36716 ft | 494 kts | 124° |
| 2026-05-09 02:47 | 62.30314 | -153.39271 | 36715 ft | 494 kts | 124° |
| 2026-05-09 02:47 | 62.26536 | -153.26981 | 36721 ft | 493 kts | 124° |
| 2026-05-09 02:48 | 62.22739 | -153.14693 | 36725 ft | 493 kts | 124° |
| 2026-05-09 02:48 | 62.18945 | -153.02479 | 36727 ft | 492 kts | 125° |
| 2026-05-09 02:49 | 62.15139 | -152.90282 | 36726 ft | 492 kts | 125° |
| 2026-05-09 02:49 | 62.11330 | -152.78163 | 36736 ft | 491 kts | 125° |
| 2026-05-09 02:50 | 62.07499 | -152.66043 | 36734 ft | 491 kts | 125° |
| 2026-05-09 02:50 | 62.03664 | -152.53967 | 36732 ft | 491 kts | 126° |
| 2026-05-09 02:51 | 62.00171 | -152.43017 | 36738 ft | 491 kts | 126° |
| 2026-05-09 02:51 | 61.96572 | -152.31790 | 36721 ft | 491 kts | 126° |
| 2026-05-09 02:52 | 61.92951 | -152.20546 | 36741 ft | 490 kts | 126° |
| 2026-05-09 02:52 | 61.90047 | -152.11566 | 36727 ft | 490 kts | 126° |
| 2026-05-09 02:53 | 61.88859 | -152.07904 | 36732 ft | 489 kts | 126° |
| 2026-05-09 02:53 | 61.85201 | -151.96667 | 36722 ft | 489 kts | 126° |
| 2026-05-09 02:54 | 61.81353 | -151.84901 | 36718 ft | 489 kts | 127° |
| 2026-05-09 02:54 | 61.77469 | -151.73088 | 36708 ft | 488 kts | 127° |
| 2026-05-09 02:55 | 61.73585 | -151.61335 | 36707 ft | 488 kts | 127° |
| 2026-05-09 02:55 | 61.69691 | -151.49613 | 36704 ft | 488 kts | 127° |
| 2026-05-09 02:56 | 61.65788 | -151.37924 | 36693 ft | 487 kts | 127° |
| 2026-05-09 02:56 | 61.61905 | -151.26349 | 36695 ft | 487 kts | 127° |
| 2026-05-09 02:57 | 61.57987 | -151.14735 | 36684 ft | 487 kts | 128° |
| 2026-05-09 02:57 | 61.54057 | -151.03139 | 36687 ft | 487 kts | 128° |
| 2026-05-09 02:58 | 61.50127 | -150.91601 | 36684 ft | 487 kts | 128° |
| 2026-05-09 02:58 | 61.46188 | -150.80093 | 36691 ft | 486 kts | 128° |
| 2026-05-09 02:59 | 61.42235 | -150.68606 | 36693 ft | 486 kts | 128° |
| 2026-05-09 02:59 | 61.38267 | -150.57131 | 36691 ft | 486 kts | 128° |
| 2026-05-09 03:00 | 61.34339 | -150.45826 | 36696 ft | 486 kts | 128° |
| 2026-05-09 03:00 | 61.30362 | -150.34437 | 36700 ft | 486 kts | 129° |
| 2026-05-09 03:01 | 61.26379 | -150.23084 | 36697 ft | 485 kts | 129° |
| 2026-05-09 03:01 | 61.22412 | -150.11831 | 36688 ft | 485 kts | 129° |
| 2026-05-09 03:02 | 61.18413 | -150.00536 | 36685 ft | 485 kts | 129° |
| 2026-05-09 03:02 | 61.14139 | -149.89799 | 36691 ft | 481 kts | 135° |
| 2026-05-09 03:03 | 61.09568 | -149.79711 | 36682 ft | 480 kts | 136° |
| 2026-05-09 03:03 | 61.04987 | -149.69641 | 36686 ft | 480 kts | 136° |
| 2026-05-09 03:04 | 61.00451 | -149.59632 | 36687 ft | 480 kts | 135° |
| 2026-05-09 03:04 | 60.95890 | -149.49578 | 36692 ft | 480 kts | 136° |
| 2026-05-09 03:05 | 60.91335 | -149.39576 | 36709 ft | 479 kts | 136° |
| 2026-05-09 03:05 | 60.86771 | -149.29606 | 36716 ft | 479 kts | 136° |
| 2026-05-09 03:06 | 60.82193 | -149.19650 | 36717 ft | 479 kts | 136° |
| 2026-05-09 03:06 | 60.77619 | -149.09749 | 36718 ft | 478 kts | 136° |
| 2026-05-09 03:07 | 60.73042 | -148.99886 | 36712 ft | 478 kts | 136° |
| 2026-05-09 03:07 | 60.68461 | -148.90057 | 36727 ft | 478 kts | 136° |
| 2026-05-09 03:08 | 60.63874 | -148.80255 | 36722 ft | 477 kts | 136° |
| 2026-05-09 03:08 | 60.59289 | -148.70499 | 36723 ft | 476 kts | 136° |
| 2026-05-09 03:09 | 60.54723 | -148.60828 | 36729 ft | 476 kts | 136° |
| 2026-05-09 03:09 | 60.50125 | -148.51130 | 36706 ft | 477 kts | 136° |
| 2026-05-09 03:10 | 60.45519 | -148.41463 | 36713 ft | 477 kts | 136° |
| 2026-05-09 03:10 | 60.40898 | -148.31817 | 36714 ft | 477 kts | 136° |
| 2026-05-09 03:11 | 60.36275 | -148.22201 | 36708 ft | 477 kts | 136° |
| 2026-05-09 03:11 | 60.31642 | -148.12605 | 36707 ft | 477 kts | 136° |
| 2026-05-09 03:12 | 60.27002 | -148.03032 | 36707 ft | 477 kts | 136° |
| 2026-05-09 03:12 | 60.22384 | -147.93545 | 36713 ft | 477 kts | 136° |
| 2026-05-09 03:13 | 60.15397 | -147.79270 | 36717 ft | 477 kts | 136° |
| 2026-05-09 03:13 | 60.10729 | -147.69784 | 36710 ft | 477 kts | 136° |
| 2026-05-09 03:14 | 60.06059 | -147.60334 | 36706 ft | 477 kts | 136° |
| 2026-05-09 03:14 | 60.01370 | -147.50886 | 36693 ft | 478 kts | 136° |
| 2026-05-09 03:15 | 59.96668 | -147.41451 | 36681 ft | 478 kts | 136° |
| 2026-05-09 03:15 | 59.92002 | -147.32130 | 36664 ft | 478 kts | 136° |
| 2026-05-09 03:16 | 59.87303 | -147.22781 | 36668 ft | 477 kts | 136° |
| 2026-05-09 03:16 | 59.82601 | -147.13467 | 36652 ft | 477 kts | 137° |
| 2026-05-09 03:17 | 59.77884 | -147.04162 | 36655 ft | 477 kts | 137° |
| 2026-05-09 03:17 | 59.73166 | -146.94894 | 36652 ft | 477 kts | 137° |
| 2026-05-09 03:18 | 59.68456 | -146.85681 | 36652 ft | 476 kts | 137° |
| 2026-05-09 03:18 | 59.63732 | -146.76474 | 36654 ft | 476 kts | 137° |
| 2026-05-09 03:19 | 59.59033 | -146.67358 | 36647 ft | 475 kts | 137° |
| 2026-05-09 03:19 | 59.54314 | -146.58242 | 36647 ft | 474 kts | 137° |
| 2026-05-09 03:20 | 59.49597 | -146.49159 | 36646 ft | 473 kts | 137° |
| 2026-05-09 03:20 | 59.44941 | -146.40008 | 36641 ft | 474 kts | 131° |
| 2026-05-09 03:21 | 59.41284 | -146.29202 | 36655 ft | 476 kts | 119° |
| 2026-05-09 03:21 | 59.38812 | -146.17189 | 36652 ft | 477 kts | 111° |
| 2026-05-09 03:22 | 59.36625 | -146.04889 | 36639 ft | 477 kts | 111° |
| 2026-05-09 03:22 | 59.34422 | -145.92630 | 36633 ft | 476 kts | 111° |
| 2026-05-09 03:23 | 59.32180 | -145.80439 | 36623 ft | 474 kts | 112° |
| 2026-05-09 03:23 | 59.29922 | -145.68327 | 36608 ft | 472 kts | 112° |
| 2026-05-09 03:24 | 59.27689 | -145.56446 | 36598 ft | 465 kts | 112° |
| 2026-05-09 03:24 | 59.25444 | -145.44550 | 36609 ft | 468 kts | 112° |
| 2026-05-09 03:25 | 59.23180 | -145.32639 | 36598 ft | 465 kts | 112° |
| 2026-05-09 03:25 | 59.20908 | -145.20764 | 36600 ft | 468 kts | 112° |
| 2026-05-09 03:26 | 59.18623 | -145.08884 | 36587 ft | 465 kts | 112° |
| 2026-05-09 03:26 | 59.16331 | -144.97033 | 36599 ft | 468 kts | 113° |
| 2026-05-09 03:27 | 59.14021 | -144.85172 | 36598 ft | 468 kts | 112° |
| 2026-05-09 03:27 | 59.11723 | -144.73441 | 36587 ft | 466 kts | 113° |
| 2026-05-09 03:28 | 59.09397 | -144.61640 | 36598 ft | 469 kts | 113° |
| 2026-05-09 03:28 | 59.07058 | -144.49840 | 36588 ft | 466 kts | 113° |
| 2026-05-09 03:29 | 59.04715 | -144.38087 | 36596 ft | 468 kts | 113° |
| 2026-05-09 03:29 | 59.02366 | -144.26367 | 36588 ft | 465 kts | 114° |
| 2026-05-09 03:30 | 58.99999 | -144.14629 | 36580 ft | 466 kts | 114° |
| 2026-05-09 03:30 | 58.97632 | -144.02972 | 36587 ft | 467 kts | 114° |
| 2026-05-09 03:31 | 58.95266 | -143.91373 | 36576 ft | 463 kts | 114° |
| 2026-05-09 03:31 | 58.92863 | -143.79670 | 36583 ft | 468 kts | 114° |
| 2026-05-09 03:32 | 58.90469 | -143.68055 | 36573 ft | 463 kts | 114° |
| 2026-05-09 03:32 | 58.88050 | -143.56422 | 36576 ft | 465 kts | 114° |
| 2026-05-09 03:33 | 58.85639 | -143.44882 | 36598 ft | 464 kts | 114° |
| 2026-05-09 03:33 | 58.83205 | -143.33292 | 36574 ft | 464 kts | 115° |
| 2026-05-09 03:34 | 58.80776 | -143.21788 | 36593 ft | 464 kts | 114° |
| 2026-05-09 03:34 | 58.78327 | -143.10256 | 36569 ft | 463 kts | 115° |
| 2026-05-09 03:35 | 58.75862 | -142.98718 | 36571 ft | 466 kts | 115° |
| 2026-05-09 03:35 | 58.73413 | -142.87316 | 36586 ft | 462 kts | 115° |
| 2026-05-09 03:36 | 58.70926 | -142.75805 | 36578 ft | 469 kts | 115° |
| 2026-05-09 03:36 | 58.68399 | -142.64171 | 36575 ft | 473 kts | 115° |
| 2026-05-09 03:37 | 58.66260 | -142.54372 | 36577 ft | 475 kts | 115° |
| 2026-05-09 03:37 | 58.63673 | -142.42582 | 36577 ft | 480 kts | 115° |
| 2026-05-09 03:38 | 58.61107 | -142.30942 | 36580 ft | 476 kts | 115° |
| 2026-05-09 03:38 | 58.58507 | -142.19227 | 36573 ft | 480 kts | 115° |
| 2026-05-09 03:39 | 58.55889 | -142.07488 | 36568 ft | 477 kts | 115° |
| 2026-05-09 03:39 | 58.53267 | -141.95802 | 36562 ft | 476 kts | 116° |
| 2026-05-09 03:40 | 58.50645 | -141.84179 | 36562 ft | 477 kts | 116° |
| 2026-05-09 03:40 | 58.47999 | -141.72525 | 36567 ft | 477 kts | 116° |
| 2026-05-09 03:41 | 58.45349 | -141.60908 | 36568 ft | 477 kts | 116° |
| 2026-05-09 03:41 | 58.42687 | -141.49302 | 36563 ft | 478 kts | 116° |
| 2026-05-09 03:42 | 58.40035 | -141.37792 | 36571 ft | 475 kts | 116° |
| 2026-05-09 03:42 | 58.37358 | -141.26252 | 36576 ft | 477 kts | 116° |
| 2026-05-09 03:43 | 58.34658 | -141.14672 | 36569 ft | 478 kts | 116° |
| 2026-05-09 03:43 | 58.31952 | -141.03126 | 36565 ft | 477 kts | 116° |
| 2026-05-09 03:44 | 58.29246 | -140.91637 | 36565 ft | 475 kts | 117° |
| 2026-05-09 03:44 | 58.26528 | -140.80158 | 36572 ft | 478 kts | 117° |
| 2026-05-09 03:45 | 58.23800 | -140.68705 | 36567 ft | 475 kts | 117° |
| 2026-05-09 03:45 | 58.21074 | -140.57322 | 36570 ft | 477 kts | 117° |
| 2026-05-09 03:46 | 58.18317 | -140.45876 | 36559 ft | 476 kts | 117° |
| 2026-05-09 03:46 | 58.15558 | -140.34462 | 36572 ft | 478 kts | 117° |
| 2026-05-09 03:47 | 58.12784 | -140.23050 | 36565 ft | 475 kts | 117° |
| 2026-05-09 03:47 | 58.10023 | -140.11765 | 36573 ft | 476 kts | 117° |
| 2026-05-09 03:48 | 58.07236 | -140.00420 | 36571 ft | 475 kts | 118° |
| 2026-05-09 03:48 | 58.04432 | -139.89085 | 36579 ft | 478 kts | 118° |
| 2026-05-09 03:49 | 58.01623 | -139.77771 | 36575 ft | 475 kts | 118° |
| 2026-05-09 03:49 | 57.98794 | -139.66431 | 36585 ft | 480 kts | 118° |
| 2026-05-09 03:50 | 57.95962 | -139.55132 | 36572 ft | 471 kts | 118° |
| 2026-05-09 03:50 | 57.93172 | -139.44057 | 36576 ft | 466 kts | 118° |
| 2026-05-09 03:51 | 57.90371 | -139.33018 | 36588 ft | 469 kts | 118° |
| 2026-05-09 03:51 | 57.87549 | -139.21936 | 36594 ft | 470 kts | 118° |
| 2026-05-09 03:52 | 57.84723 | -139.10898 | 36593 ft | 473 kts | 118° |
| 2026-05-09 03:52 | 57.81862 | -138.99774 | 36588 ft | 473 kts | 119° |
| 2026-05-09 03:53 | 57.79002 | -138.88697 | 36592 ft | 471 kts | 119° |
| 2026-05-09 03:53 | 57.76139 | -138.77680 | 36590 ft | 468 kts | 119° |
| 2026-05-09 03:54 | 57.73284 | -138.66739 | 36597 ft | 467 kts | 119° |
| 2026-05-09 03:54 | 57.70423 | -138.55839 | 36607 ft | 468 kts | 119° |
| 2026-05-09 03:55 | 57.67542 | -138.44911 | 36606 ft | 469 kts | 119° |
| 2026-05-09 03:55 | 57.64644 | -138.33975 | 36615 ft | 471 kts | 119° |
| 2026-05-09 03:56 | 57.61738 | -138.23058 | 36622 ft | 473 kts | 120° |
| 2026-05-09 03:56 | 57.59357 | -138.14152 | 36621 ft | 474 kts | 120° |
| 2026-05-09 03:57 | 57.56402 | -138.03142 | 36621 ft | 475 kts | 120° |
| 2026-05-09 03:57 | 57.53438 | -137.92155 | 36624 ft | 474 kts | 120° |
| 2026-05-09 03:58 | 57.50461 | -137.81175 | 36624 ft | 474 kts | 120° |
| 2026-05-09 03:58 | 57.47480 | -137.70236 | 36630 ft | 474 kts | 120° |
| 2026-05-09 03:59 | 57.44490 | -137.59311 | 36641 ft | 474 kts | 120° |
| 2026-05-09 03:59 | 57.41482 | -137.48376 | 36644 ft | 474 kts | 120° |
| 2026-05-09 04:00 | 57.38494 | -137.37564 | 36647 ft | 474 kts | 120° |
| 2026-05-09 04:00 | 57.35480 | -137.26708 | 36648 ft | 474 kts | 121° |
| 2026-05-09 04:01 | 57.32453 | -137.15858 | 36649 ft | 474 kts | 121° |
| 2026-05-09 04:01 | 57.29420 | -137.05038 | 36654 ft | 472 kts | 121° |
| 2026-05-09 04:02 | 57.26388 | -136.94274 | 36665 ft | 473 kts | 121° |
| 2026-05-09 04:02 | 57.23336 | -136.83489 | 36657 ft | 473 kts | 121° |
| 2026-05-09 04:03 | 57.20283 | -136.72751 | 36660 ft | 473 kts | 121° |
| 2026-05-09 04:03 | 57.17216 | -136.62011 | 36668 ft | 473 kts | 122° |
| 2026-05-09 04:04 | 57.14141 | -136.51296 | 36673 ft | 474 kts | 122° |
| 2026-05-09 04:04 | 57.11046 | -136.40560 | 36671 ft | 474 kts | 122° |
| 2026-05-09 04:05 | 57.07948 | -136.29863 | 36678 ft | 474 kts | 122° |
| 2026-05-09 04:05 | 57.04842 | -136.19185 | 36676 ft | 473 kts | 122° |
| 2026-05-09 04:06 | 57.01746 | -136.08593 | 36695 ft | 473 kts | 122° |
| 2026-05-09 04:06 | 56.98618 | -135.97938 | 36695 ft | 473 kts | 122° |
| 2026-05-09 04:07 | 56.95481 | -135.87300 | 36709 ft | 474 kts | 122° |
| 2026-05-09 04:07 | 56.92337 | -135.76687 | 36712 ft | 474 kts | 123° |
| 2026-05-09 04:08 | 56.89186 | -135.66094 | 36726 ft | 474 kts | 123° |
| 2026-05-09 04:08 | 56.85984 | -135.55563 | 36731 ft | 472 kts | 126° |
| 2026-05-09 04:09 | 56.82210 | -135.46035 | 36736 ft | 469 kts | 132° |
| 2026-05-09 04:09 | 56.78200 | -135.36615 | 36728 ft | 470 kts | 132° |
| 2026-05-09 04:10 | 56.74242 | -135.27259 | 36606 ft | 466 kts | 132° |
| 2026-05-09 04:10 | 56.72267 | -135.22572 | 36260 ft | 466 kts | 132° |
| 2026-05-09 04:10 | 56.70299 | -135.17902 | 35831 ft | 464 kts | 132° |
| 2026-05-09 04:11 | 56.68340 | -135.13262 | 35265 ft | 460 kts | 132° |
| 2026-05-09 04:11 | 56.66393 | -135.08659 | 34723 ft | 456 kts | 133° |
| 2026-05-09 04:11 | 56.64461 | -135.04102 | 34198 ft | 453 kts | 133° |
| 2026-05-09 04:11 | 56.62542 | -134.99586 | 33638 ft | 449 kts | 133° |
| 2026-05-09 04:12 | 56.60640 | -134.95118 | 33019 ft | 446 kts | 134° |
| 2026-05-09 04:12 | 56.58744 | -134.90676 | 32410 ft | 442 kts | 134° |
| 2026-05-09 04:12 | 56.56868 | -134.86289 | 31816 ft | 439 kts | 134° |
| 2026-05-09 04:12 | 56.54997 | -134.81926 | 31221 ft | 436 kts | 134° |
| 2026-05-09 04:13 | 56.53135 | -134.77597 | 30667 ft | 433 kts | 134° |
| 2026-05-09 04:13 | 56.51308 | -134.73358 | 30111 ft | 430 kts | 135° |
| 2026-05-09 04:13 | 56.49474 | -134.69107 | 29519 ft | 428 kts | 134° |
| 2026-05-09 04:13 | 56.47647 | -134.64882 | 28843 ft | 425 kts | 135° |
| 2026-05-09 04:14 | 56.45921 | -134.60896 | 28253 ft | 421 kts | 134° |
| 2026-05-09 04:14 | 56.44060 | -134.56608 | 27612 ft | 418 kts | 134° |
| 2026-05-09 04:14 | 56.42268 | -134.52487 | 27000 ft | 415 kts | 134° |
| 2026-05-09 04:14 | 56.40493 | -134.48410 | 26407 ft | 412 kts | 134° |
| 2026-05-09 04:15 | 56.38732 | -134.44369 | 25831 ft | 409 kts | 134° |
| 2026-05-09 04:15 | 56.36981 | -134.40361 | 25304 ft | 405 kts | 134° |
| 2026-05-09 04:15 | 56.35237 | -134.36372 | 24812 ft | 401 kts | 134° |
| 2026-05-09 04:15 | 56.33523 | -134.32457 | 24327 ft | 397 kts | 134° |
| 2026-05-09 04:16 | 56.31814 | -134.28561 | 23852 ft | 393 kts | 133° |
| 2026-05-09 04:16 | 56.30182 | -134.24848 | 23402 ft | 389 kts | 133° |
| 2026-05-09 04:16 | 56.28557 | -134.21158 | 22862 ft | 386 kts | 133° |
| 2026-05-09 04:16 | 56.26895 | -134.17387 | 22328 ft | 383 kts | 133° |
| 2026-05-09 04:17 | 56.25242 | -134.13643 | 21783 ft | 381 kts | 133° |
| 2026-05-09 04:17 | 56.23602 | -134.09933 | 21272 ft | 378 kts | 133° |
| 2026-05-09 04:17 | 56.21971 | -134.06251 | 20732 ft | 375 kts | 133° |
| 2026-05-09 04:17 | 56.20349 | -134.02596 | 20249 ft | 373 kts | 133° |
| 2026-05-09 04:18 | 56.18739 | -133.98971 | 19735 ft | 371 kts | 133° |
| 2026-05-09 04:18 | 56.17134 | -133.95362 | 19254 ft | 368 kts | 133° |
| 2026-05-09 04:18 | 56.15542 | -133.91790 | 18756 ft | 366 kts | 133° |
| 2026-05-09 04:18 | 56.14489 | -133.89430 | 18436 ft | 364 kts | 133° |
| 2026-05-09 04:19 | 56.12911 | -133.85896 | 17942 ft | 362 kts | 133° |
| 2026-05-09 04:19 | 56.11345 | -133.82396 | 17401 ft | 359 kts | 133° |
| 2026-05-09 04:19 | 56.09788 | -133.78919 | 16868 ft | 357 kts | 132° |
| 2026-05-09 04:19 | 56.08234 | -133.75456 | 16343 ft | 354 kts | 132° |
| 2026-05-09 04:20 | 56.06695 | -133.72029 | 15812 ft | 352 kts | 132° |
| 2026-05-09 04:20 | 56.05171 | -133.68642 | 15330 ft | 349 kts | 132° |
| 2026-05-09 04:20 | 56.04319 | -133.66749 | 15056 ft | 348 kts | 132° |
| 2026-05-09 04:20 | 56.02873 | -133.63544 | 14573 ft | 346 kts | 132° |
| 2026-05-09 04:21 | 56.01364 | -133.60200 | 14077 ft | 344 kts | 132° |
| 2026-05-09 04:21 | 55.99865 | -133.56882 | 13614 ft | 342 kts | 131° |
| 2026-05-09 04:21 | 55.96951 | -133.50446 | 12566 ft | 339 kts | 132° |
| 2026-05-09 04:22 | 55.95471 | -133.47184 | 12054 ft | 337 kts | 132° |
| 2026-05-09 04:22 | 55.93997 | -133.43941 | 11532 ft | 335 kts | 132° |
| 2026-05-09 04:22 | 55.92527 | -133.40711 | 11020 ft | 334 kts | 132° |
| 2026-05-09 04:22 | 55.91116 | -133.37614 | 10551 ft | 332 kts | 132° |
| 2026-05-09 04:23 | 55.89661 | -133.34424 | 10059 ft | 331 kts | 132° |
| 2026-05-09 04:23 | 55.88213 | -133.31253 | 9634 ft | 327 kts | 132° |
| 2026-05-09 04:23 | 55.86782 | -133.28123 | 9232 ft | 323 kts | 132° |
| 2026-05-09 04:23 | 55.85377 | -133.25054 | 8813 ft | 318 kts | 132° |
| 2026-05-09 04:24 | 55.83990 | -133.22029 | 8427 ft | 313 kts | 132° |
| 2026-05-09 04:24 | 55.82620 | -133.19043 | 8041 ft | 309 kts | 133° |
| 2026-05-09 04:24 | 55.81272 | -133.16110 | 7707 ft | 304 kts | 133° |
| 2026-05-09 04:24 | 55.79952 | -133.13239 | 7512 ft | 294 kts | 133° |
| 2026-05-09 04:25 | 55.78675 | -133.10466 | 7329 ft | 285 kts | 133° |
| 2026-05-09 04:25 | 55.77439 | -133.07783 | 7139 ft | 277 kts | 133° |
| 2026-05-09 04:25 | 55.76233 | -133.05173 | 6934 ft | 269 kts | 134° |
| 2026-05-09 04:25 | 55.75064 | -133.02644 | 6764 ft | 261 kts | 133° |
| 2026-05-09 04:26 | 55.73928 | -133.00190 | 6576 ft | 255 kts | 133° |
| 2026-05-09 04:26 | 55.72812 | -132.97781 | 6385 ft | 249 kts | 133° |
| 2026-05-09 04:26 | 55.71886 | -132.95283 | 6079 ft | 241 kts | 112° |
| 2026-05-09 04:26 | 55.71581 | -132.92430 | 5982 ft | 232 kts | 105° |
| 2026-05-09 04:27 | 55.71292 | -132.89554 | 5845 ft | 242 kts | 106° |
| 2026-05-09 04:27 | 55.70985 | -132.86636 | 5669 ft | 243 kts | 106° |
| 2026-05-09 04:27 | 55.70677 | -132.83728 | 5464 ft | 238 kts | 106° |
| 2026-05-09 04:27 | 55.70373 | -132.80874 | 5267 ft | 232 kts | 106° |
| 2026-05-09 04:28 | 55.70075 | -132.78092 | 5058 ft | 226 kts | 106° |
| 2026-05-09 04:28 | 55.69784 | -132.75412 | 4887 ft | 216 kts | 106° |
| 2026-05-09 04:28 | 55.69506 | -132.72852 | 4667 ft | 207 kts | 107° |
| 2026-05-09 04:28 | 55.69234 | -132.70371 | 4597 ft | 204 kts | 107° |
| 2026-05-09 04:29 | 55.68960 | -132.67898 | 4549 ft | 205 kts | 106° |
| 2026-05-09 04:29 | 55.68682 | -132.65419 | 4556 ft | 206 kts | 107° |
| 2026-05-09 04:29 | 55.68403 | -132.62918 | 4540 ft | 207 kts | 106° |
| 2026-05-09 04:29 | 55.68125 | -132.60417 | 4543 ft | 207 kts | 107° |
| 2026-05-09 04:30 | 55.67845 | -132.57913 | 4547 ft | 207 kts | 107° |
| 2026-05-09 04:30 | 55.67564 | -132.55412 | 4557 ft | 206 kts | 106° |
| 2026-05-09 04:30 | 55.67288 | -132.52936 | 4534 ft | 202 kts | 106° |
| 2026-05-09 04:30 | 55.67015 | -132.50496 | 4550 ft | 203 kts | 107° |
| 2026-05-09 04:31 | 55.66740 | -132.48071 | 4572 ft | 204 kts | 107° |
| 2026-05-09 04:31 | 55.66462 | -132.45607 | 4594 ft | 206 kts | 106° |
| 2026-05-09 04:31 | 55.66178 | -132.43094 | 4562 ft | 209 kts | 106° |
| 2026-05-09 04:31 | 55.65892 | -132.40568 | 4570 ft | 209 kts | 106° |
| 2026-05-09 04:32 | 55.65604 | -132.38041 | 4592 ft | 209 kts | 106° |
| 2026-05-09 04:32 | 55.65321 | -132.35535 | 4550 ft | 204 kts | 106° |
| 2026-05-09 04:32 | 55.65044 | -132.33085 | 4553 ft | 202 kts | 106° |
| 2026-05-09 04:32 | 55.64765 | -132.30637 | 4571 ft | 204 kts | 107° |
| 2026-05-09 04:33 | 55.64484 | -132.28172 | 4576 ft | 205 kts | 107° |
| 2026-05-09 04:33 | 55.64199 | -132.25691 | 4576 ft | 207 kts | 107° |
| 2026-05-09 04:33 | 55.63911 | -132.23191 | 4577 ft | 207 kts | 107° |
| 2026-05-09 04:33 | 55.63623 | -132.20685 | 4578 ft | 208 kts | 107° |
| 2026-05-09 04:34 | 55.63334 | -132.18172 | 4589 ft | 209 kts | 106° |
| 2026-05-09 04:34 | 55.62859 | -132.15833 | 4558 ft | 200 kts | 132° |
| 2026-05-09 04:34 | 55.61781 | -132.14360 | 4569 ft | 193 kts | 157° |
| 2026-05-09 04:34 | 55.60603 | -132.13318 | 4595 ft | 194 kts | 150° |
| 2026-05-09 04:35 | 55.59473 | -132.11894 | 4597 ft | 199 kts | 144° |
| 2026-05-09 04:35 | 55.58439 | -132.10345 | 4598 ft | 196 kts | 143° |
| 2026-05-09 04:35 | 55.57379 | -132.08830 | 4595 ft | 195 kts | 142° |
| 2026-05-09 04:35 | 55.56357 | -132.07253 | 4533 ft | 189 kts | 139° |
| 2026-05-09 04:36 | 55.55401 | -132.05665 | 4541 ft | 192 kts | 140° |
| 2026-05-09 04:36 | 55.54411 | -132.03976 | 4569 ft | 200 kts | 139° |
| 2026-05-09 04:36 | 55.53411 | -132.02251 | 4302 ft | 201 kts | 138° |
| 2026-05-09 04:36 | 55.52438 | -132.00561 | 4153 ft | 189 kts | 138° |
| 2026-05-09 04:37 | 55.51532 | -131.98986 | 4080 ft | 175 kts | 138° |
| 2026-05-09 04:37 | 55.50692 | -131.97526 | 4052 ft | 165 kts | 138° |
| 2026-05-09 04:37 | 55.49884 | -131.96126 | 3836 ft | 165 kts | 138° |
| 2026-05-09 04:37 | 55.49071 | -131.94717 | 3642 ft | 161 kts | 138° |
| 2026-05-09 04:38 | 55.48298 | -131.93376 | 3433 ft | 149 kts | 138° |
| 2026-05-09 04:38 | 55.47586 | -131.92143 | 3222 ft | 138 kts | 137° |
| 2026-05-09 04:38 | 55.46911 | -131.90975 | 3047 ft | 136 kts | 137° |
| 2026-05-09 04:38 | 55.46242 | -131.89817 | 2877 ft | 138 kts | 137° |
| 2026-05-09 04:39 | 55.45555 | -131.88629 | 2685 ft | 139 kts | 137° |
| 2026-05-09 04:39 | 55.44869 | -131.87441 | 2488 ft | 138 kts | 137° |
| 2026-05-09 04:39 | 55.44175 | -131.86242 | 2302 ft | 141 kts | 137° |
| 2026-05-09 04:39 | 55.43478 | -131.85036 | 2099 ft | 139 kts | 136° |
| 2026-05-09 04:40 | 55.42788 | -131.83844 | 1889 ft | 138 kts | 137° |
| 2026-05-09 04:40 | 55.42097 | -131.82651 | 1713 ft | 140 kts | 137° |
| 2026-05-09 04:40 | 55.41399 | -131.81446 | 1491 ft | 140 kts | 136° |
| 2026-05-09 04:40 | 55.40703 | -131.80240 | 1329 ft | 143 kts | 137° |
| 2026-05-09 04:41 | 55.39982 | -131.79001 | 1140 ft | 146 kts | 136° |
| 2026-05-09 04:41 | 55.39275 | -131.77781 | 967 ft | 138 kts | 136° |
| 2026-05-09 04:41 | 55.38601 | -131.76617 | 791 ft | 135 kts | 135° |
| 2026-05-09 04:41 | 55.37942 | -131.75482 | 638 ft | 133 kts | 136° |
| 2026-05-09 04:42 | 55.37282 | -131.74344 | 428 ft | 130 kts | 135° |
| 2026-05-09 04:42 | 55.36649 | -131.73268 | 278 ft | 122 kts | 134° |
| 2026-05-09 04:42 | 55.36037 | -131.72193 | 106 ft | 121 kts | 135° |
| 2026-05-09 04:42 | 55.35541 | -131.71345 | 105 ft | 68 kts | 137° |
| 2026-05-09 04:43 | 55.35341 | -131.71006 | 105 ft | 31 kts | 136° |
| 2026-05-09 04:43 | 55.35187 | -131.70741 | 103 ft | 30 kts | 135° |
| 2026-05-09 04:43 | 55.35037 | -131.70485 | 103 ft | 30 kts | 136° |
| 2026-05-09 04:43 | 55.34890 | -131.70233 | 105 ft | 25 kts | 136° |
| 2026-05-09 04:44 | 55.34838 | -131.70113 | 107 ft | 2 kts | 86° |
| 2026-05-09 04:44 | 55.34847 | -131.70087 | 109 ft | 3 kts | 51° |
| 2026-05-09 04:44 | 55.34871 | -131.70058 | 106 ft | 5 kts | 33° |
| 2026-05-09 04:44 | 55.34915 | -131.70038 | 107 ft | 8 kts | 6° |
| 2026-05-09 04:45 | 55.34967 | -131.70089 | 107 ft | 11 kts | 318° |
| 2026-05-09 04:45 | 55.35036 | -131.70197 | 105 ft | 16 kts | 318° |
| 2026-05-09 04:45 | 55.35138 | -131.70359 | 99 ft | 24 kts | 316° |
| 2026-05-09 04:45 | 55.35295 | -131.70616 | 61 ft | 38 kts | 317° |
| 2026-05-09 04:46 | 55.35474 | -131.70908 | 47 ft | 0 kts | 317° |
| 2026-05-09 04:46 | 55.35486 | -131.70927 | 47 ft | 5 kts | 316° |
| 2026-05-09 04:46 | 55.35524 | -131.70991 | 47 ft | 10 kts | 316° |
| 2026-05-09 04:46 | 55.35586 | -131.71095 | 46 ft | 12 kts | 315° |
| 2026-05-09 04:47 | 55.35600 | -131.71107 | 47 ft | 3 kts | 342° |
| 2026-05-09 04:47 | 55.35632 | -131.71089 | 47 ft | 6 kts | 39° |
| 2026-05-09 04:47 | 55.35642 | -131.71068 | 47 ft | 3 kts | 49° |
| 2026-05-09 04:47 | 55.35651 | -131.71051 | 47 ft | 0 kts | 48° |
| 2026-05-09 04:48 | 55.35653 | -131.71047 | 47 ft | 0 kts | 48° |
| 2026-05-09 04:48 | 55.35654 | -131.71046 | 47 ft | 0 kts | 48° |
| 2026-05-09 04:49 | 55.35654 | -131.71045 | 47 ft | 0 kts | 48° |
| 2026-05-09 04:54 | 55.35654 | -131.71046 | 47 ft | 0 kts | 48° |
| 2026-05-09 05:03 | 55.35653 | -131.71046 | 56 ft | 0 kts | 48° |
| 2026-05-09 05:07 | 55.35653 | -131.71047 | 47 ft | 0 kts | 48° |
| 2026-05-09 05:19 | 55.35653 | -131.71048 | 47 ft | 0 kts | 48° |
| 2026-05-09 05:29 | 55.35652 | -131.71048 | 47 ft | 0 kts | 48° |
| 2026-05-09 05:33 | 55.35652 | -131.71049 | 47 ft | 0 kts | 48° |